<?xml version="1.0" encoding="UTF-8" standalone="no" ?>
<gpx xmlns="http://www.topografix.com/GPX/1/1" xmlns:xsi="http://www.w3.org/2001/XMLSchema-instance" xsi:schemaLocation="http://www.topografix.com/GPX/1/1 http://www.topografix.com/GPX/1/1/gpx.xsd" version="1.1" creator="VisuGPX - https://www.visugpx.com">
  <metadata>
    <name>14217770-étape 5 Perros Guirec - Plouezoc'h 91 kms</name>
  </metadata>
  <trk>
    <name><![CDATA[14217770-étape 5 Perros Guirec - Plouezoc'h 91 kms]]></name>
    <trkseg>
      <trkpt lat="48.81594" lon="-3.44423">
        <ele>48</ele>
        <time>2022-04-02T15:14:31Z</time>
      </trkpt>
      <trkpt lat="48.81584" lon="-3.44456">
        <ele>47</ele>
        <time>2022-04-02T15:14:35Z</time>
      </trkpt>
      <trkpt lat="48.81667" lon="-3.4452">
        <ele>50</ele>
        <time>2022-04-02T15:14:52Z</time>
      </trkpt>
      <trkpt lat="48.81622" lon="-3.4461">
        <ele>48</ele>
        <time>2022-04-02T15:15:05Z</time>
      </trkpt>
      <trkpt lat="48.81632" lon="-3.44635">
        <ele>47</ele>
        <time>2022-04-02T15:15:08Z</time>
      </trkpt>
      <trkpt lat="48.81631" lon="-3.44688">
        <ele>44</ele>
        <time>2022-04-02T15:15:15Z</time>
      </trkpt>
      <trkpt lat="48.81599" lon="-3.44794">
        <ele>45</ele>
        <time>2022-04-02T15:15:28Z</time>
      </trkpt>
      <trkpt lat="48.81605" lon="-3.44893">
        <ele>39</ele>
        <time>2022-04-02T15:15:40Z</time>
      </trkpt>
      <trkpt lat="48.81586" lon="-3.44951">
        <ele>40</ele>
        <time>2022-04-02T15:15:48Z</time>
      </trkpt>
      <trkpt lat="48.81547" lon="-3.45023">
        <ele>37</ele>
        <time>2022-04-02T15:15:59Z</time>
      </trkpt>
      <trkpt lat="48.81498" lon="-3.45291">
        <ele>26</ele>
        <time>2022-04-02T15:16:31Z</time>
      </trkpt>
      <trkpt lat="48.81486" lon="-3.45459">
        <ele>21</ele>
        <time>2022-04-02T15:16:51Z</time>
      </trkpt>
      <trkpt lat="48.81615" lon="-3.45885">
        <ele>6</ele>
        <time>2022-04-02T15:17:46Z</time>
      </trkpt>
      <trkpt lat="48.81686" lon="-3.4606">
        <ele>6</ele>
        <time>2022-04-02T15:18:10Z</time>
      </trkpt>
      <trkpt lat="48.81707" lon="-3.46086">
        <ele>7</ele>
        <time>2022-04-02T15:18:15Z</time>
      </trkpt>
      <trkpt lat="48.81852" lon="-3.46117">
        <ele>25</ele>
        <time>2022-04-02T15:18:41Z</time>
      </trkpt>
      <trkpt lat="48.81799" lon="-3.46205">
        <ele>32</ele>
        <time>2022-04-02T15:18:55Z</time>
      </trkpt>
      <trkpt lat="48.81768" lon="-3.46341">
        <ele>45</ele>
        <time>2022-04-02T15:19:12Z</time>
      </trkpt>
      <trkpt lat="48.81732" lon="-3.46384">
        <ele>47</ele>
        <time>2022-04-02T15:19:20Z</time>
      </trkpt>
      <trkpt lat="48.81675" lon="-3.46377">
        <ele>45</ele>
        <time>2022-04-02T15:19:30Z</time>
      </trkpt>
      <trkpt lat="48.81547" lon="-3.46546">
        <ele>54</ele>
        <time>2022-04-02T15:20:00Z</time>
      </trkpt>
      <trkpt lat="48.81509" lon="-3.46758">
        <ele>62</ele>
        <time>2022-04-02T15:20:26Z</time>
      </trkpt>
      <trkpt lat="48.81487" lon="-3.46844">
        <ele>63</ele>
        <time>2022-04-02T15:20:37Z</time>
      </trkpt>
      <trkpt lat="48.81437" lon="-3.46777">
        <ele>59</ele>
        <time>2022-04-02T15:20:49Z</time>
      </trkpt>
      <trkpt lat="48.81422" lon="-3.46817">
        <ele>60</ele>
        <time>2022-04-02T15:20:54Z</time>
      </trkpt>
      <trkpt lat="48.81413" lon="-3.4687">
        <ele>62</ele>
        <time>2022-04-02T15:21:00Z</time>
      </trkpt>
      <trkpt lat="48.81457" lon="-3.46879">
        <ele>63</ele>
        <time>2022-04-02T15:21:08Z</time>
      </trkpt>
      <trkpt lat="48.81549" lon="-3.4713">
        <ele>68</ele>
        <time>2022-04-02T15:21:42Z</time>
      </trkpt>
      <trkpt lat="48.81672" lon="-3.47222">
        <ele>68</ele>
        <time>2022-04-02T15:22:06Z</time>
      </trkpt>
      <trkpt lat="48.81668" lon="-3.47278">
        <ele>67</ele>
        <time>2022-04-02T15:22:13Z</time>
      </trkpt>
      <trkpt lat="48.81632" lon="-3.47395">
        <ele>64</ele>
        <time>2022-04-02T15:22:28Z</time>
      </trkpt>
      <trkpt lat="48.81628" lon="-3.47562">
        <ele>54</ele>
        <time>2022-04-02T15:22:48Z</time>
      </trkpt>
      <trkpt lat="48.81562" lon="-3.47531">
        <ele>58</ele>
        <time>2022-04-02T15:23:00Z</time>
      </trkpt>
      <trkpt lat="48.81595" lon="-3.47628">
        <ele>45</ele>
        <time>2022-04-02T15:23:13Z</time>
      </trkpt>
      <trkpt lat="48.81609" lon="-3.47888">
        <ele>38</ele>
        <time>2022-04-02T15:23:43Z</time>
      </trkpt>
      <trkpt lat="48.81606" lon="-3.4793">
        <ele>37</ele>
        <time>2022-04-02T15:23:48Z</time>
      </trkpt>
      <trkpt lat="48.81629" lon="-3.48026">
        <ele>34</ele>
        <time>2022-04-02T15:24:00Z</time>
      </trkpt>
      <trkpt lat="48.81615" lon="-3.48102">
        <ele>30</ele>
        <time>2022-04-02T15:24:09Z</time>
      </trkpt>
      <trkpt lat="48.8158" lon="-3.48194">
        <ele>24</ele>
        <time>2022-04-02T15:24:22Z</time>
      </trkpt>
      <trkpt lat="48.81513" lon="-3.48289">
        <ele>22</ele>
        <time>2022-04-02T15:24:38Z</time>
      </trkpt>
      <trkpt lat="48.81457" lon="-3.48426">
        <ele>23</ele>
        <time>2022-04-02T15:24:57Z</time>
      </trkpt>
      <trkpt lat="48.81416" lon="-3.48503">
        <ele>25</ele>
        <time>2022-04-02T15:25:09Z</time>
      </trkpt>
      <trkpt lat="48.8137" lon="-3.48628">
        <ele>33</ele>
        <time>2022-04-02T15:25:25Z</time>
      </trkpt>
      <trkpt lat="48.81345" lon="-3.4872">
        <ele>38</ele>
        <time>2022-04-02T15:25:37Z</time>
      </trkpt>
      <trkpt lat="48.8134" lon="-3.48761">
        <ele>41</ele>
        <time>2022-04-02T15:25:42Z</time>
      </trkpt>
      <trkpt lat="48.81345" lon="-3.48793">
        <ele>44</ele>
        <time>2022-04-02T15:25:46Z</time>
      </trkpt>
      <trkpt lat="48.81385" lon="-3.48824">
        <ele>45</ele>
        <time>2022-04-02T15:25:54Z</time>
      </trkpt>
      <trkpt lat="48.81385" lon="-3.48868">
        <ele>47</ele>
        <time>2022-04-02T15:25:59Z</time>
      </trkpt>
      <trkpt lat="48.81526" lon="-3.48882">
        <ele>39</ele>
        <time>2022-04-02T15:26:24Z</time>
      </trkpt>
      <trkpt lat="48.81659" lon="-3.48889">
        <ele>34</ele>
        <time>2022-04-02T15:26:48Z</time>
      </trkpt>
      <trkpt lat="48.81734" lon="-3.48913">
        <ele>34</ele>
        <time>2022-04-02T15:27:01Z</time>
      </trkpt>
      <trkpt lat="48.81823" lon="-3.48896">
        <ele>35</ele>
        <time>2022-04-02T15:27:17Z</time>
      </trkpt>
      <trkpt lat="48.8192" lon="-3.48895">
        <ele>34</ele>
        <time>2022-04-02T15:27:35Z</time>
      </trkpt>
      <trkpt lat="48.82016" lon="-3.48932">
        <ele>27</ele>
        <time>2022-04-02T15:27:52Z</time>
      </trkpt>
      <trkpt lat="48.82105" lon="-3.4895">
        <ele>22</ele>
        <time>2022-04-02T15:28:08Z</time>
      </trkpt>
      <trkpt lat="48.82172" lon="-3.48933">
        <ele>19</ele>
        <time>2022-04-02T15:28:20Z</time>
      </trkpt>
      <trkpt lat="48.82207" lon="-3.48876">
        <ele>18</ele>
        <time>2022-04-02T15:28:30Z</time>
      </trkpt>
      <trkpt lat="48.8224" lon="-3.4887">
        <ele>16</ele>
        <time>2022-04-02T15:28:35Z</time>
      </trkpt>
      <trkpt lat="48.82378" lon="-3.48865">
        <ele>12</ele>
        <time>2022-04-02T15:29:00Z</time>
      </trkpt>
      <trkpt lat="48.82408" lon="-3.48867">
        <ele>11</ele>
        <time>2022-04-02T15:29:05Z</time>
      </trkpt>
      <trkpt lat="48.8249" lon="-3.48783">
        <ele>11</ele>
        <time>2022-04-02T15:29:23Z</time>
      </trkpt>
      <trkpt lat="48.82566" lon="-3.49053">
        <ele>1</ele>
        <time>2022-04-02T15:29:57Z</time>
      </trkpt>
      <trkpt lat="48.82568" lon="-3.49122">
        <ele>2</ele>
        <time>2022-04-02T15:30:05Z</time>
      </trkpt>
      <trkpt lat="48.82635" lon="-3.49149">
        <ele>3</ele>
        <time>2022-04-02T15:30:18Z</time>
      </trkpt>
      <trkpt lat="48.8273" lon="-3.49265">
        <ele>5</ele>
        <time>2022-04-02T15:30:39Z</time>
      </trkpt>
      <trkpt lat="48.8269" lon="-3.49383">
        <ele>4</ele>
        <time>2022-04-02T15:30:55Z</time>
      </trkpt>
      <trkpt lat="48.8269" lon="-3.49468">
        <ele>5</ele>
        <time>2022-04-02T15:31:05Z</time>
      </trkpt>
      <trkpt lat="48.82828" lon="-3.49532">
        <ele>3</ele>
        <time>2022-04-02T15:31:31Z</time>
      </trkpt>
      <trkpt lat="48.82867" lon="-3.49628">
        <ele>4</ele>
        <time>2022-04-02T15:31:44Z</time>
      </trkpt>
      <trkpt lat="48.82902" lon="-3.49659">
        <ele>7</ele>
        <time>2022-04-02T15:31:51Z</time>
      </trkpt>
      <trkpt lat="48.82934" lon="-3.49667">
        <ele>8</ele>
        <time>2022-04-02T15:31:57Z</time>
      </trkpt>
      <trkpt lat="48.82921" lon="-3.49767">
        <ele>5</ele>
        <time>2022-04-02T15:32:09Z</time>
      </trkpt>
      <trkpt lat="48.82939" lon="-3.49826">
        <ele>3</ele>
        <time>2022-04-02T15:32:16Z</time>
      </trkpt>
      <trkpt lat="48.82936" lon="-3.4987">
        <ele>3</ele>
        <time>2022-04-02T15:32:22Z</time>
      </trkpt>
      <trkpt lat="48.82865" lon="-3.49873">
        <ele>5</ele>
        <time>2022-04-02T15:32:34Z</time>
      </trkpt>
      <trkpt lat="48.82784" lon="-3.49908">
        <ele>5</ele>
        <time>2022-04-02T15:32:49Z</time>
      </trkpt>
      <trkpt lat="48.82699" lon="-3.49903">
        <ele>5</ele>
        <time>2022-04-02T15:33:04Z</time>
      </trkpt>
      <trkpt lat="48.82631" lon="-3.49883">
        <ele>5</ele>
        <time>2022-04-02T15:33:17Z</time>
      </trkpt>
      <trkpt lat="48.82597" lon="-3.49938">
        <ele>3</ele>
        <time>2022-04-02T15:33:25Z</time>
      </trkpt>
      <trkpt lat="48.82582" lon="-3.49994">
        <ele>2</ele>
        <time>2022-04-02T15:33:33Z</time>
      </trkpt>
      <trkpt lat="48.82576" lon="-3.50034">
        <ele>2</ele>
        <time>2022-04-02T15:33:37Z</time>
      </trkpt>
      <trkpt lat="48.82533" lon="-3.50026">
        <ele>3</ele>
        <time>2022-04-02T15:33:45Z</time>
      </trkpt>
      <trkpt lat="48.82492" lon="-3.50037">
        <ele>3</ele>
        <time>2022-04-02T15:33:52Z</time>
      </trkpt>
      <trkpt lat="48.82455" lon="-3.50059">
        <ele>4</ele>
        <time>2022-04-02T15:34:00Z</time>
      </trkpt>
      <trkpt lat="48.8243" lon="-3.50063">
        <ele>4</ele>
        <time>2022-04-02T15:34:04Z</time>
      </trkpt>
      <trkpt lat="48.82417" lon="-3.50059">
        <ele>5</ele>
        <time>2022-04-02T15:34:06Z</time>
      </trkpt>
      <trkpt lat="48.82403" lon="-3.50029">
        <ele>5</ele>
        <time>2022-04-02T15:34:11Z</time>
      </trkpt>
      <trkpt lat="48.82367" lon="-3.50021">
        <ele>6</ele>
        <time>2022-04-02T15:34:17Z</time>
      </trkpt>
      <trkpt lat="48.82354" lon="-3.50031">
        <ele>6</ele>
        <time>2022-04-02T15:34:20Z</time>
      </trkpt>
      <trkpt lat="48.82204" lon="-3.50095">
        <ele>7</ele>
        <time>2022-04-02T15:34:47Z</time>
      </trkpt>
      <trkpt lat="48.82138" lon="-3.50108">
        <ele>8</ele>
        <time>2022-04-02T15:34:59Z</time>
      </trkpt>
      <trkpt lat="48.82076" lon="-3.50102">
        <ele>9</ele>
        <time>2022-04-02T15:35:10Z</time>
      </trkpt>
      <trkpt lat="48.81939" lon="-3.50055">
        <ele>18</ele>
        <time>2022-04-02T15:35:35Z</time>
      </trkpt>
      <trkpt lat="48.81899" lon="-3.50062">
        <ele>19</ele>
        <time>2022-04-02T15:35:43Z</time>
      </trkpt>
      <trkpt lat="48.81883" lon="-3.501">
        <ele>20</ele>
        <time>2022-04-02T15:35:48Z</time>
      </trkpt>
      <trkpt lat="48.8188" lon="-3.5017">
        <ele>20</ele>
        <time>2022-04-02T15:35:56Z</time>
      </trkpt>
      <trkpt lat="48.81816" lon="-3.50258">
        <ele>20</ele>
        <time>2022-04-02T15:36:11Z</time>
      </trkpt>
      <trkpt lat="48.81786" lon="-3.50282">
        <ele>19</ele>
        <time>2022-04-02T15:36:17Z</time>
      </trkpt>
      <trkpt lat="48.81766" lon="-3.50329">
        <ele>18</ele>
        <time>2022-04-02T15:36:24Z</time>
      </trkpt>
      <trkpt lat="48.81779" lon="-3.50484">
        <ele>14</ele>
        <time>2022-04-02T15:36:42Z</time>
      </trkpt>
      <trkpt lat="48.81817" lon="-3.50526">
        <ele>13</ele>
        <time>2022-04-02T15:36:51Z</time>
      </trkpt>
      <trkpt lat="48.81831" lon="-3.50564">
        <ele>13</ele>
        <time>2022-04-02T15:36:56Z</time>
      </trkpt>
      <trkpt lat="48.81782" lon="-3.51055">
        <ele>12</ele>
        <time>2022-04-02T15:37:54Z</time>
      </trkpt>
      <trkpt lat="48.81749" lon="-3.51133">
        <ele>12</ele>
        <time>2022-04-02T15:38:05Z</time>
      </trkpt>
      <trkpt lat="48.81743" lon="-3.51216">
        <ele>13</ele>
        <time>2022-04-02T15:38:15Z</time>
      </trkpt>
      <trkpt lat="48.81751" lon="-3.51302">
        <ele>12</ele>
        <time>2022-04-02T15:38:25Z</time>
      </trkpt>
      <trkpt lat="48.81735" lon="-3.51365">
        <ele>12</ele>
        <time>2022-04-02T15:38:33Z</time>
      </trkpt>
      <trkpt lat="48.81733" lon="-3.51479">
        <ele>11</ele>
        <time>2022-04-02T15:38:46Z</time>
      </trkpt>
      <trkpt lat="48.81646" lon="-3.51561">
        <ele>12</ele>
        <time>2022-04-02T15:39:04Z</time>
      </trkpt>
      <trkpt lat="48.81577" lon="-3.51598">
        <ele>12</ele>
        <time>2022-04-02T15:39:17Z</time>
      </trkpt>
      <trkpt lat="48.81517" lon="-3.5167">
        <ele>14</ele>
        <time>2022-04-02T15:39:31Z</time>
      </trkpt>
      <trkpt lat="48.81423" lon="-3.51805">
        <ele>17</ele>
        <time>2022-04-02T15:39:54Z</time>
      </trkpt>
      <trkpt lat="48.81351" lon="-3.51863">
        <ele>18</ele>
        <time>2022-04-02T15:40:08Z</time>
      </trkpt>
      <trkpt lat="48.81267" lon="-3.51909">
        <ele>21</ele>
        <time>2022-04-02T15:40:24Z</time>
      </trkpt>
      <trkpt lat="48.81081" lon="-3.51985">
        <ele>32</ele>
        <time>2022-04-02T15:40:59Z</time>
      </trkpt>
      <trkpt lat="48.81089" lon="-3.52035">
        <ele>31</ele>
        <time>2022-04-02T15:41:05Z</time>
      </trkpt>
      <trkpt lat="48.81082" lon="-3.5208">
        <ele>31</ele>
        <time>2022-04-02T15:41:10Z</time>
      </trkpt>
      <trkpt lat="48.81071" lon="-3.52248">
        <ele>29</ele>
        <time>2022-04-02T15:41:30Z</time>
      </trkpt>
      <trkpt lat="48.81044" lon="-3.52434">
        <ele>22</ele>
        <time>2022-04-02T15:41:52Z</time>
      </trkpt>
      <trkpt lat="48.81048" lon="-3.52521">
        <ele>18</ele>
        <time>2022-04-02T15:42:02Z</time>
      </trkpt>
      <trkpt lat="48.81024" lon="-3.5254">
        <ele>17</ele>
        <time>2022-04-02T15:42:07Z</time>
      </trkpt>
      <trkpt lat="48.80971" lon="-3.52531">
        <ele>19</ele>
        <time>2022-04-02T15:42:17Z</time>
      </trkpt>
      <trkpt lat="48.80923" lon="-3.52551">
        <ele>21</ele>
        <time>2022-04-02T15:42:25Z</time>
      </trkpt>
      <trkpt lat="48.80876" lon="-3.52579">
        <ele>25</ele>
        <time>2022-04-02T15:42:34Z</time>
      </trkpt>
      <trkpt lat="48.80843" lon="-3.52624">
        <ele>28</ele>
        <time>2022-04-02T15:42:42Z</time>
      </trkpt>
      <trkpt lat="48.80796" lon="-3.52743">
        <ele>31</ele>
        <time>2022-04-02T15:42:59Z</time>
      </trkpt>
      <trkpt lat="48.80777" lon="-3.52723">
        <ele>31</ele>
        <time>2022-04-02T15:43:03Z</time>
      </trkpt>
      <trkpt lat="48.80722" lon="-3.52653">
        <ele>34</ele>
        <time>2022-04-02T15:43:15Z</time>
      </trkpt>
      <trkpt lat="48.80646" lon="-3.52605">
        <ele>37</ele>
        <time>2022-04-02T15:43:30Z</time>
      </trkpt>
      <trkpt lat="48.8058" lon="-3.52586">
        <ele>37</ele>
        <time>2022-04-02T15:43:42Z</time>
      </trkpt>
      <trkpt lat="48.80565" lon="-3.52631">
        <ele>35</ele>
        <time>2022-04-02T15:43:48Z</time>
      </trkpt>
      <trkpt lat="48.80527" lon="-3.52695">
        <ele>31</ele>
        <time>2022-04-02T15:43:58Z</time>
      </trkpt>
      <trkpt lat="48.80514" lon="-3.52743">
        <ele>29</ele>
        <time>2022-04-02T15:44:04Z</time>
      </trkpt>
      <trkpt lat="48.80461" lon="-3.52723">
        <ele>29</ele>
        <time>2022-04-02T15:44:14Z</time>
      </trkpt>
      <trkpt lat="48.80366" lon="-3.52721">
        <ele>30</ele>
        <time>2022-04-02T15:44:31Z</time>
      </trkpt>
      <trkpt lat="48.80283" lon="-3.52791">
        <ele>30</ele>
        <time>2022-04-02T15:44:48Z</time>
      </trkpt>
      <trkpt lat="48.80242" lon="-3.52815">
        <ele>30</ele>
        <time>2022-04-02T15:44:55Z</time>
      </trkpt>
      <trkpt lat="48.80211" lon="-3.52817">
        <ele>32</ele>
        <time>2022-04-02T15:45:01Z</time>
      </trkpt>
      <trkpt lat="48.80189" lon="-3.52794">
        <ele>34</ele>
        <time>2022-04-02T15:45:06Z</time>
      </trkpt>
      <trkpt lat="48.80143" lon="-3.52891">
        <ele>31</ele>
        <time>2022-04-02T15:45:20Z</time>
      </trkpt>
      <trkpt lat="48.80079" lon="-3.53001">
        <ele>28</ele>
        <time>2022-04-02T15:45:37Z</time>
      </trkpt>
      <trkpt lat="48.79996" lon="-3.53116">
        <ele>22</ele>
        <time>2022-04-02T15:45:57Z</time>
      </trkpt>
      <trkpt lat="48.80031" lon="-3.53208">
        <ele>19</ele>
        <time>2022-04-02T15:46:09Z</time>
      </trkpt>
      <trkpt lat="48.80084" lon="-3.53242">
        <ele>19</ele>
        <time>2022-04-02T15:46:20Z</time>
      </trkpt>
      <trkpt lat="48.80038" lon="-3.53279">
        <ele>18</ele>
        <time>2022-04-02T15:46:29Z</time>
      </trkpt>
      <trkpt lat="48.79997" lon="-3.53321">
        <ele>19</ele>
        <time>2022-04-02T15:46:38Z</time>
      </trkpt>
      <trkpt lat="48.79959" lon="-3.53281">
        <ele>20</ele>
        <time>2022-04-02T15:46:46Z</time>
      </trkpt>
      <trkpt lat="48.79905" lon="-3.53272">
        <ele>22</ele>
        <time>2022-04-02T15:46:56Z</time>
      </trkpt>
      <trkpt lat="48.79868" lon="-3.53285">
        <ele>23</ele>
        <time>2022-04-02T15:47:02Z</time>
      </trkpt>
      <trkpt lat="48.79859" lon="-3.53331">
        <ele>23</ele>
        <time>2022-04-02T15:47:08Z</time>
      </trkpt>
      <trkpt lat="48.79862" lon="-3.53389">
        <ele>23</ele>
        <time>2022-04-02T15:47:15Z</time>
      </trkpt>
      <trkpt lat="48.79859" lon="-3.53433">
        <ele>24</ele>
        <time>2022-04-02T15:47:20Z</time>
      </trkpt>
      <trkpt lat="48.79824" lon="-3.53489">
        <ele>25</ele>
        <time>2022-04-02T15:47:29Z</time>
      </trkpt>
      <trkpt lat="48.79807" lon="-3.53522">
        <ele>27</ele>
        <time>2022-04-02T15:47:34Z</time>
      </trkpt>
      <trkpt lat="48.79755" lon="-3.53556">
        <ele>30</ele>
        <time>2022-04-02T15:47:44Z</time>
      </trkpt>
      <trkpt lat="48.7973" lon="-3.53593">
        <ele>30</ele>
        <time>2022-04-02T15:47:50Z</time>
      </trkpt>
      <trkpt lat="48.79699" lon="-3.53663">
        <ele>28</ele>
        <time>2022-04-02T15:48:00Z</time>
      </trkpt>
      <trkpt lat="48.79651" lon="-3.53656">
        <ele>29</ele>
        <time>2022-04-02T15:48:09Z</time>
      </trkpt>
      <trkpt lat="48.79607" lon="-3.53666">
        <ele>29</ele>
        <time>2022-04-02T15:48:17Z</time>
      </trkpt>
      <trkpt lat="48.79555" lon="-3.5369">
        <ele>30</ele>
        <time>2022-04-02T15:48:26Z</time>
      </trkpt>
      <trkpt lat="48.79518" lon="-3.53704">
        <ele>32</ele>
        <time>2022-04-02T15:48:33Z</time>
      </trkpt>
      <trkpt lat="48.7948" lon="-3.53803">
        <ele>33</ele>
        <time>2022-04-02T15:48:47Z</time>
      </trkpt>
      <trkpt lat="48.79459" lon="-3.53845">
        <ele>34</ele>
        <time>2022-04-02T15:48:53Z</time>
      </trkpt>
      <trkpt lat="48.79445" lon="-3.53897">
        <ele>34</ele>
        <time>2022-04-02T15:48:59Z</time>
      </trkpt>
      <trkpt lat="48.7943" lon="-3.53934">
        <ele>35</ele>
        <time>2022-04-02T15:49:04Z</time>
      </trkpt>
      <trkpt lat="48.79414" lon="-3.53947">
        <ele>36</ele>
        <time>2022-04-02T15:49:08Z</time>
      </trkpt>
      <trkpt lat="48.79375" lon="-3.53957">
        <ele>36</ele>
        <time>2022-04-02T15:49:15Z</time>
      </trkpt>
      <trkpt lat="48.79349" lon="-3.53983">
        <ele>37</ele>
        <time>2022-04-02T15:49:20Z</time>
      </trkpt>
      <trkpt lat="48.7934" lon="-3.54107">
        <ele>39</ele>
        <time>2022-04-02T15:49:35Z</time>
      </trkpt>
      <trkpt lat="48.79343" lon="-3.54185">
        <ele>38</ele>
        <time>2022-04-02T15:49:44Z</time>
      </trkpt>
      <trkpt lat="48.79337" lon="-3.54226">
        <ele>38</ele>
        <time>2022-04-02T15:49:49Z</time>
      </trkpt>
      <trkpt lat="48.79326" lon="-3.54268">
        <ele>39</ele>
        <time>2022-04-02T15:49:54Z</time>
      </trkpt>
      <trkpt lat="48.79306" lon="-3.54306">
        <ele>41</ele>
        <time>2022-04-02T15:50:00Z</time>
      </trkpt>
      <trkpt lat="48.79249" lon="-3.54453">
        <ele>48</ele>
        <time>2022-04-02T15:50:20Z</time>
      </trkpt>
      <trkpt lat="48.79222" lon="-3.545">
        <ele>48</ele>
        <time>2022-04-02T15:50:27Z</time>
      </trkpt>
      <trkpt lat="48.79198" lon="-3.54629">
        <ele>42</ele>
        <time>2022-04-02T15:50:43Z</time>
      </trkpt>
      <trkpt lat="48.79183" lon="-3.54685">
        <ele>41</ele>
        <time>2022-04-02T15:50:50Z</time>
      </trkpt>
      <trkpt lat="48.79169" lon="-3.54706">
        <ele>41</ele>
        <time>2022-04-02T15:50:53Z</time>
      </trkpt>
      <trkpt lat="48.79143" lon="-3.54692">
        <ele>43</ele>
        <time>2022-04-02T15:50:58Z</time>
      </trkpt>
      <trkpt lat="48.791" lon="-3.54628">
        <ele>47</ele>
        <time>2022-04-02T15:51:09Z</time>
      </trkpt>
      <trkpt lat="48.79081" lon="-3.54623">
        <ele>48</ele>
        <time>2022-04-02T15:51:13Z</time>
      </trkpt>
      <trkpt lat="48.79037" lon="-3.54641">
        <ele>47</ele>
        <time>2022-04-02T15:51:21Z</time>
      </trkpt>
      <trkpt lat="48.78958" lon="-3.54592">
        <ele>44</ele>
        <time>2022-04-02T15:51:36Z</time>
      </trkpt>
      <trkpt lat="48.78922" lon="-3.54573">
        <ele>41</ele>
        <time>2022-04-02T15:51:43Z</time>
      </trkpt>
      <trkpt lat="48.78898" lon="-3.54526">
        <ele>38</ele>
        <time>2022-04-02T15:51:50Z</time>
      </trkpt>
      <trkpt lat="48.78878" lon="-3.54469">
        <ele>36</ele>
        <time>2022-04-02T15:51:57Z</time>
      </trkpt>
      <trkpt lat="48.7886" lon="-3.54485">
        <ele>32</ele>
        <time>2022-04-02T15:52:01Z</time>
      </trkpt>
      <trkpt lat="48.78855" lon="-3.54363">
        <ele>33</ele>
        <time>2022-04-02T15:52:15Z</time>
      </trkpt>
      <trkpt lat="48.78832" lon="-3.54302">
        <ele>32</ele>
        <time>2022-04-02T15:52:23Z</time>
      </trkpt>
      <trkpt lat="48.78776" lon="-3.54111">
        <ele>33</ele>
        <time>2022-04-02T15:52:48Z</time>
      </trkpt>
      <trkpt lat="48.78758" lon="-3.54076">
        <ele>34</ele>
        <time>2022-04-02T15:52:53Z</time>
      </trkpt>
      <trkpt lat="48.78719" lon="-3.54039">
        <ele>32</ele>
        <time>2022-04-02T15:53:01Z</time>
      </trkpt>
      <trkpt lat="48.78696" lon="-3.54008">
        <ele>32</ele>
        <time>2022-04-02T15:53:07Z</time>
      </trkpt>
      <trkpt lat="48.78634" lon="-3.53807">
        <ele>30</ele>
        <time>2022-04-02T15:53:33Z</time>
      </trkpt>
      <trkpt lat="48.78591" lon="-3.53598">
        <ele>27</ele>
        <time>2022-04-02T15:53:58Z</time>
      </trkpt>
      <trkpt lat="48.78486" lon="-3.53331">
        <ele>29</ele>
        <time>2022-04-02T15:54:35Z</time>
      </trkpt>
      <trkpt lat="48.78475" lon="-3.53288">
        <ele>28</ele>
        <time>2022-04-02T15:54:40Z</time>
      </trkpt>
      <trkpt lat="48.78474" lon="-3.53218">
        <ele>28</ele>
        <time>2022-04-02T15:54:49Z</time>
      </trkpt>
      <trkpt lat="48.78465" lon="-3.53175">
        <ele>26</ele>
        <time>2022-04-02T15:54:54Z</time>
      </trkpt>
      <trkpt lat="48.78433" lon="-3.53121">
        <ele>23</ele>
        <time>2022-04-02T15:55:02Z</time>
      </trkpt>
      <trkpt lat="48.78393" lon="-3.53118">
        <ele>22</ele>
        <time>2022-04-02T15:55:09Z</time>
      </trkpt>
      <trkpt lat="48.78359" lon="-3.53155">
        <ele>22</ele>
        <time>2022-04-02T15:55:17Z</time>
      </trkpt>
      <trkpt lat="48.78322" lon="-3.53203">
        <ele>21</ele>
        <time>2022-04-02T15:55:26Z</time>
      </trkpt>
      <trkpt lat="48.7832" lon="-3.53221">
        <ele>21</ele>
        <time>2022-04-02T15:55:28Z</time>
      </trkpt>
      <trkpt lat="48.78333" lon="-3.53314">
        <ele>20</ele>
        <time>2022-04-02T15:55:39Z</time>
      </trkpt>
      <trkpt lat="48.78338" lon="-3.53437">
        <ele>22</ele>
        <time>2022-04-02T15:55:53Z</time>
      </trkpt>
      <trkpt lat="48.78361" lon="-3.53561">
        <ele>23</ele>
        <time>2022-04-02T15:56:08Z</time>
      </trkpt>
      <trkpt lat="48.7837" lon="-3.53632">
        <ele>21</ele>
        <time>2022-04-02T15:56:17Z</time>
      </trkpt>
      <trkpt lat="48.7837" lon="-3.537">
        <ele>20</ele>
        <time>2022-04-02T15:56:25Z</time>
      </trkpt>
      <trkpt lat="48.78354" lon="-3.53792">
        <ele>22</ele>
        <time>2022-04-02T15:56:36Z</time>
      </trkpt>
      <trkpt lat="48.7835" lon="-3.53864">
        <ele>23</ele>
        <time>2022-04-02T15:56:45Z</time>
      </trkpt>
      <trkpt lat="48.78355" lon="-3.5397">
        <ele>25</ele>
        <time>2022-04-02T15:56:57Z</time>
      </trkpt>
      <trkpt lat="48.78372" lon="-3.54053">
        <ele>27</ele>
        <time>2022-04-02T15:57:07Z</time>
      </trkpt>
      <trkpt lat="48.78391" lon="-3.54123">
        <ele>28</ele>
        <time>2022-04-02T15:57:16Z</time>
      </trkpt>
      <trkpt lat="48.78388" lon="-3.5435">
        <ele>31</ele>
        <time>2022-04-02T15:57:43Z</time>
      </trkpt>
      <trkpt lat="48.78405" lon="-3.54456">
        <ele>32</ele>
        <time>2022-04-02T15:57:55Z</time>
      </trkpt>
      <trkpt lat="48.78393" lon="-3.54496">
        <ele>34</ele>
        <time>2022-04-02T15:58:01Z</time>
      </trkpt>
      <trkpt lat="48.78286" lon="-3.54523">
        <ele>41</ele>
        <time>2022-04-02T15:58:20Z</time>
      </trkpt>
      <trkpt lat="48.78218" lon="-3.54533">
        <ele>46</ele>
        <time>2022-04-02T15:58:32Z</time>
      </trkpt>
      <trkpt lat="48.78132" lon="-3.54531">
        <ele>50</ele>
        <time>2022-04-02T15:58:47Z</time>
      </trkpt>
      <trkpt lat="48.78108" lon="-3.5455">
        <ele>52</ele>
        <time>2022-04-02T15:58:52Z</time>
      </trkpt>
      <trkpt lat="48.78125" lon="-3.54607">
        <ele>52</ele>
        <time>2022-04-02T15:59:00Z</time>
      </trkpt>
      <trkpt lat="48.78124" lon="-3.54646">
        <ele>52</ele>
        <time>2022-04-02T15:59:04Z</time>
      </trkpt>
      <trkpt lat="48.78116" lon="-3.54699">
        <ele>54</ele>
        <time>2022-04-02T15:59:10Z</time>
      </trkpt>
      <trkpt lat="48.78062" lon="-3.54719">
        <ele>56</ele>
        <time>2022-04-02T15:59:20Z</time>
      </trkpt>
      <trkpt lat="48.78009" lon="-3.5476">
        <ele>60</ele>
        <time>2022-04-02T15:59:31Z</time>
      </trkpt>
      <trkpt lat="48.77859" lon="-3.55047">
        <ele>64</ele>
        <time>2022-04-02T16:00:14Z</time>
      </trkpt>
      <trkpt lat="48.77618" lon="-3.55332">
        <ele>66</ele>
        <time>2022-04-02T16:01:08Z</time>
      </trkpt>
      <trkpt lat="48.77585" lon="-3.5535">
        <ele>66</ele>
        <time>2022-04-02T16:01:14Z</time>
      </trkpt>
      <trkpt lat="48.77482" lon="-3.55502">
        <ele>67</ele>
        <time>2022-04-02T16:01:40Z</time>
      </trkpt>
      <trkpt lat="48.77467" lon="-3.55546">
        <ele>67</ele>
        <time>2022-04-02T16:01:46Z</time>
      </trkpt>
      <trkpt lat="48.77448" lon="-3.55684">
        <ele>66</ele>
        <time>2022-04-02T16:02:02Z</time>
      </trkpt>
      <trkpt lat="48.7742" lon="-3.55748">
        <ele>65</ele>
        <time>2022-04-02T16:02:11Z</time>
      </trkpt>
      <trkpt lat="48.77382" lon="-3.55786">
        <ele>64</ele>
        <time>2022-04-02T16:02:19Z</time>
      </trkpt>
      <trkpt lat="48.77374" lon="-3.5583">
        <ele>63</ele>
        <time>2022-04-02T16:02:25Z</time>
      </trkpt>
      <trkpt lat="48.7739" lon="-3.55895">
        <ele>63</ele>
        <time>2022-04-02T16:02:33Z</time>
      </trkpt>
      <trkpt lat="48.77506" lon="-3.56083">
        <ele>53</ele>
        <time>2022-04-02T16:03:03Z</time>
      </trkpt>
      <trkpt lat="48.77519" lon="-3.5616">
        <ele>53</ele>
        <time>2022-04-02T16:03:13Z</time>
      </trkpt>
      <trkpt lat="48.77539" lon="-3.56248">
        <ele>55</ele>
        <time>2022-04-02T16:03:23Z</time>
      </trkpt>
      <trkpt lat="48.77508" lon="-3.56449">
        <ele>54</ele>
        <time>2022-04-02T16:03:48Z</time>
      </trkpt>
      <trkpt lat="48.77529" lon="-3.56483">
        <ele>53</ele>
        <time>2022-04-02T16:03:53Z</time>
      </trkpt>
      <trkpt lat="48.77613" lon="-3.56569">
        <ele>49</ele>
        <time>2022-04-02T16:04:11Z</time>
      </trkpt>
      <trkpt lat="48.77608" lon="-3.56722">
        <ele>45</ele>
        <time>2022-04-02T16:04:29Z</time>
      </trkpt>
      <trkpt lat="48.77571" lon="-3.56877">
        <ele>39</ele>
        <time>2022-04-02T16:04:48Z</time>
      </trkpt>
      <trkpt lat="48.77525" lon="-3.56948">
        <ele>34</ele>
        <time>2022-04-02T16:05:00Z</time>
      </trkpt>
      <trkpt lat="48.77463" lon="-3.56972">
        <ele>34</ele>
        <time>2022-04-02T16:05:11Z</time>
      </trkpt>
      <trkpt lat="48.77406" lon="-3.56977">
        <ele>37</ele>
        <time>2022-04-02T16:05:22Z</time>
      </trkpt>
      <trkpt lat="48.77393" lon="-3.57002">
        <ele>37</ele>
        <time>2022-04-02T16:05:25Z</time>
      </trkpt>
      <trkpt lat="48.77377" lon="-3.57053">
        <ele>34</ele>
        <time>2022-04-02T16:05:32Z</time>
      </trkpt>
      <trkpt lat="48.77343" lon="-3.57109">
        <ele>34</ele>
        <time>2022-04-02T16:05:41Z</time>
      </trkpt>
      <trkpt lat="48.77342" lon="-3.57421">
        <ele>24</ele>
        <time>2022-04-02T16:06:17Z</time>
      </trkpt>
      <trkpt lat="48.77368" lon="-3.57513">
        <ele>25</ele>
        <time>2022-04-02T16:06:29Z</time>
      </trkpt>
      <trkpt lat="48.77412" lon="-3.576">
        <ele>25</ele>
        <time>2022-04-02T16:06:42Z</time>
      </trkpt>
      <trkpt lat="48.77415" lon="-3.5768">
        <ele>27</ele>
        <time>2022-04-02T16:06:51Z</time>
      </trkpt>
      <trkpt lat="48.77379" lon="-3.57722">
        <ele>29</ele>
        <time>2022-04-02T16:07:00Z</time>
      </trkpt>
      <trkpt lat="48.77276" lon="-3.5773">
        <ele>34</ele>
        <time>2022-04-02T16:07:18Z</time>
      </trkpt>
      <trkpt lat="48.77231" lon="-3.57805">
        <ele>35</ele>
        <time>2022-04-02T16:07:30Z</time>
      </trkpt>
      <trkpt lat="48.77117" lon="-3.57778">
        <ele>40</ele>
        <time>2022-04-02T16:07:50Z</time>
      </trkpt>
      <trkpt lat="48.77098" lon="-3.57754">
        <ele>41</ele>
        <time>2022-04-02T16:07:55Z</time>
      </trkpt>
      <trkpt lat="48.77086" lon="-3.57761">
        <ele>41</ele>
        <time>2022-04-02T16:07:57Z</time>
      </trkpt>
      <trkpt lat="48.77064" lon="-3.57763">
        <ele>43</ele>
        <time>2022-04-02T16:08:01Z</time>
      </trkpt>
      <trkpt lat="48.77041" lon="-3.5776">
        <ele>44</ele>
        <time>2022-04-02T16:08:05Z</time>
      </trkpt>
      <trkpt lat="48.76989" lon="-3.57761">
        <ele>47</ele>
        <time>2022-04-02T16:08:14Z</time>
      </trkpt>
      <trkpt lat="48.76957" lon="-3.57774">
        <ele>47</ele>
        <time>2022-04-02T16:08:20Z</time>
      </trkpt>
      <trkpt lat="48.76909" lon="-3.578">
        <ele>49</ele>
        <time>2022-04-02T16:08:29Z</time>
      </trkpt>
      <trkpt lat="48.76863" lon="-3.57815">
        <ele>50</ele>
        <time>2022-04-02T16:08:38Z</time>
      </trkpt>
      <trkpt lat="48.76837" lon="-3.57813">
        <ele>50</ele>
        <time>2022-04-02T16:08:42Z</time>
      </trkpt>
      <trkpt lat="48.76786" lon="-3.57796">
        <ele>50</ele>
        <time>2022-04-02T16:08:52Z</time>
      </trkpt>
      <trkpt lat="48.76752" lon="-3.57767">
        <ele>53</ele>
        <time>2022-04-02T16:08:59Z</time>
      </trkpt>
      <trkpt lat="48.76726" lon="-3.57737">
        <ele>51</ele>
        <time>2022-04-02T16:09:04Z</time>
      </trkpt>
      <trkpt lat="48.76682" lon="-3.57657">
        <ele>54</ele>
        <time>2022-04-02T16:09:17Z</time>
      </trkpt>
      <trkpt lat="48.76647" lon="-3.57601">
        <ele>56</ele>
        <time>2022-04-02T16:09:26Z</time>
      </trkpt>
      <trkpt lat="48.76614" lon="-3.57573">
        <ele>58</ele>
        <time>2022-04-02T16:09:32Z</time>
      </trkpt>
      <trkpt lat="48.7658" lon="-3.57559">
        <ele>58</ele>
        <time>2022-04-02T16:09:39Z</time>
      </trkpt>
      <trkpt lat="48.76543" lon="-3.57552">
        <ele>60</ele>
        <time>2022-04-02T16:09:45Z</time>
      </trkpt>
      <trkpt lat="48.76381" lon="-3.57552">
        <ele>60</ele>
        <time>2022-04-02T16:10:14Z</time>
      </trkpt>
      <trkpt lat="48.7634" lon="-3.57543">
        <ele>60</ele>
        <time>2022-04-02T16:10:21Z</time>
      </trkpt>
      <trkpt lat="48.76301" lon="-3.57526">
        <ele>62</ele>
        <time>2022-04-02T16:10:29Z</time>
      </trkpt>
      <trkpt lat="48.76226" lon="-3.57484">
        <ele>63</ele>
        <time>2022-04-02T16:10:43Z</time>
      </trkpt>
      <trkpt lat="48.76298" lon="-3.57356">
        <ele>66</ele>
        <time>2022-04-02T16:11:03Z</time>
      </trkpt>
      <trkpt lat="48.76332" lon="-3.57317">
        <ele>68</ele>
        <time>2022-04-02T16:11:10Z</time>
      </trkpt>
      <trkpt lat="48.76366" lon="-3.57239">
        <ele>70</ele>
        <time>2022-04-02T16:11:21Z</time>
      </trkpt>
      <trkpt lat="48.76419" lon="-3.5717">
        <ele>72</ele>
        <time>2022-04-02T16:11:34Z</time>
      </trkpt>
      <trkpt lat="48.7643" lon="-3.57145">
        <ele>72</ele>
        <time>2022-04-02T16:11:37Z</time>
      </trkpt>
      <trkpt lat="48.76434" lon="-3.57122">
        <ele>73</ele>
        <time>2022-04-02T16:11:40Z</time>
      </trkpt>
      <trkpt lat="48.76446" lon="-3.57011">
        <ele>77</ele>
        <time>2022-04-02T16:11:53Z</time>
      </trkpt>
      <trkpt lat="48.76467" lon="-3.56942">
        <ele>78</ele>
        <time>2022-04-02T16:12:02Z</time>
      </trkpt>
      <trkpt lat="48.76483" lon="-3.56917">
        <ele>79</ele>
        <time>2022-04-02T16:12:06Z</time>
      </trkpt>
      <trkpt lat="48.76526" lon="-3.56866">
        <ele>77</ele>
        <time>2022-04-02T16:12:16Z</time>
      </trkpt>
      <trkpt lat="48.76545" lon="-3.56847">
        <ele>77</ele>
        <time>2022-04-02T16:12:20Z</time>
      </trkpt>
      <trkpt lat="48.76539" lon="-3.56831">
        <ele>77</ele>
        <time>2022-04-02T16:12:22Z</time>
      </trkpt>
      <trkpt lat="48.76538" lon="-3.56809">
        <ele>76</ele>
        <time>2022-04-02T16:12:25Z</time>
      </trkpt>
      <trkpt lat="48.76545" lon="-3.56715">
        <ele>74</ele>
        <time>2022-04-02T16:12:36Z</time>
      </trkpt>
      <trkpt lat="48.76551" lon="-3.56671">
        <ele>72</ele>
        <time>2022-04-02T16:12:41Z</time>
      </trkpt>
      <trkpt lat="48.76562" lon="-3.56638">
        <ele>72</ele>
        <time>2022-04-02T16:12:45Z</time>
      </trkpt>
      <trkpt lat="48.76591" lon="-3.56585">
        <ele>73</ele>
        <time>2022-04-02T16:12:53Z</time>
      </trkpt>
      <trkpt lat="48.76607" lon="-3.56543">
        <ele>73</ele>
        <time>2022-04-02T16:12:59Z</time>
      </trkpt>
      <trkpt lat="48.76615" lon="-3.56509">
        <ele>73</ele>
        <time>2022-04-02T16:13:03Z</time>
      </trkpt>
      <trkpt lat="48.76625" lon="-3.56413">
        <ele>73</ele>
        <time>2022-04-02T16:13:15Z</time>
      </trkpt>
      <trkpt lat="48.76663" lon="-3.56253">
        <ele>74</ele>
        <time>2022-04-02T16:13:35Z</time>
      </trkpt>
      <trkpt lat="48.76657" lon="-3.56247">
        <ele>73</ele>
        <time>2022-04-02T16:13:36Z</time>
      </trkpt>
      <trkpt lat="48.76661" lon="-3.56205">
        <ele>73</ele>
        <time>2022-04-02T16:13:41Z</time>
      </trkpt>
      <trkpt lat="48.76662" lon="-3.56207">
        <ele>73</ele>
        <time>2022-04-02T16:13:41Z</time>
      </trkpt>
      <trkpt lat="48.76658" lon="-3.56134">
        <ele>73</ele>
        <time>2022-04-02T16:13:50Z</time>
      </trkpt>
      <trkpt lat="48.76662" lon="-3.5603">
        <ele>76</ele>
        <time>2022-04-02T16:14:02Z</time>
      </trkpt>
      <trkpt lat="48.76657" lon="-3.55997">
        <ele>77</ele>
        <time>2022-04-02T16:14:06Z</time>
      </trkpt>
      <trkpt lat="48.76657" lon="-3.55961">
        <ele>77</ele>
        <time>2022-04-02T16:14:10Z</time>
      </trkpt>
      <trkpt lat="48.76658" lon="-3.55942">
        <ele>77</ele>
        <time>2022-04-02T16:14:12Z</time>
      </trkpt>
      <trkpt lat="48.76664" lon="-3.55916">
        <ele>78</ele>
        <time>2022-04-02T16:14:16Z</time>
      </trkpt>
      <trkpt lat="48.76651" lon="-3.55787">
        <ele>80</ele>
        <time>2022-04-02T16:14:31Z</time>
      </trkpt>
      <trkpt lat="48.76573" lon="-3.55648">
        <ele>84</ele>
        <time>2022-04-02T16:14:52Z</time>
      </trkpt>
      <trkpt lat="48.76538" lon="-3.55601">
        <ele>85</ele>
        <time>2022-04-02T16:15:01Z</time>
      </trkpt>
      <trkpt lat="48.76516" lon="-3.55585">
        <ele>85</ele>
        <time>2022-04-02T16:15:05Z</time>
      </trkpt>
      <trkpt lat="48.76507" lon="-3.55574">
        <ele>85</ele>
        <time>2022-04-02T16:15:07Z</time>
      </trkpt>
      <trkpt lat="48.76482" lon="-3.55525">
        <ele>86</ele>
        <time>2022-04-02T16:15:14Z</time>
      </trkpt>
      <trkpt lat="48.76445" lon="-3.55412">
        <ele>88</ele>
        <time>2022-04-02T16:15:29Z</time>
      </trkpt>
      <trkpt lat="48.7642" lon="-3.55358">
        <ele>89</ele>
        <time>2022-04-02T16:15:37Z</time>
      </trkpt>
      <trkpt lat="48.76367" lon="-3.55301">
        <ele>89</ele>
        <time>2022-04-02T16:15:48Z</time>
      </trkpt>
      <trkpt lat="48.76348" lon="-3.55276">
        <ele>90</ele>
        <time>2022-04-02T16:15:53Z</time>
      </trkpt>
      <trkpt lat="48.7634" lon="-3.55272">
        <ele>90</ele>
        <time>2022-04-02T16:15:54Z</time>
      </trkpt>
      <trkpt lat="48.76321" lon="-3.55227">
        <ele>90</ele>
        <time>2022-04-02T16:16:01Z</time>
      </trkpt>
      <trkpt lat="48.7631" lon="-3.55187">
        <ele>90</ele>
        <time>2022-04-02T16:16:06Z</time>
      </trkpt>
      <trkpt lat="48.76216" lon="-3.55153">
        <ele>89</ele>
        <time>2022-04-02T16:16:23Z</time>
      </trkpt>
      <trkpt lat="48.76171" lon="-3.55133">
        <ele>88</ele>
        <time>2022-04-02T16:16:31Z</time>
      </trkpt>
      <trkpt lat="48.76157" lon="-3.5513">
        <ele>89</ele>
        <time>2022-04-02T16:16:34Z</time>
      </trkpt>
      <trkpt lat="48.76106" lon="-3.55132">
        <ele>89</ele>
        <time>2022-04-02T16:16:43Z</time>
      </trkpt>
      <trkpt lat="48.76016" lon="-3.55107">
        <ele>90</ele>
        <time>2022-04-02T16:16:59Z</time>
      </trkpt>
      <trkpt lat="48.75969" lon="-3.55088">
        <ele>91</ele>
        <time>2022-04-02T16:17:08Z</time>
      </trkpt>
      <trkpt lat="48.75897" lon="-3.55086">
        <ele>92</ele>
        <time>2022-04-02T16:17:21Z</time>
      </trkpt>
      <trkpt lat="48.75897" lon="-3.55011">
        <ele>93</ele>
        <time>2022-04-02T16:17:29Z</time>
      </trkpt>
      <trkpt lat="48.75888" lon="-3.54864">
        <ele>92</ele>
        <time>2022-04-02T16:17:47Z</time>
      </trkpt>
      <trkpt lat="48.75876" lon="-3.54791">
        <ele>94</ele>
        <time>2022-04-02T16:17:56Z</time>
      </trkpt>
      <trkpt lat="48.75868" lon="-3.54709">
        <ele>95</ele>
        <time>2022-04-02T16:18:05Z</time>
      </trkpt>
      <trkpt lat="48.75847" lon="-3.54667">
        <ele>96</ele>
        <time>2022-04-02T16:18:11Z</time>
      </trkpt>
      <trkpt lat="48.75815" lon="-3.54644">
        <ele>96</ele>
        <time>2022-04-02T16:18:18Z</time>
      </trkpt>
      <trkpt lat="48.75684" lon="-3.54616">
        <ele>95</ele>
        <time>2022-04-02T16:18:41Z</time>
      </trkpt>
      <trkpt lat="48.7567" lon="-3.54604">
        <ele>94</ele>
        <time>2022-04-02T16:18:44Z</time>
      </trkpt>
      <trkpt lat="48.75643" lon="-3.5457">
        <ele>94</ele>
        <time>2022-04-02T16:18:50Z</time>
      </trkpt>
      <trkpt lat="48.75625" lon="-3.54525">
        <ele>94</ele>
        <time>2022-04-02T16:18:57Z</time>
      </trkpt>
      <trkpt lat="48.75582" lon="-3.54589">
        <ele>94</ele>
        <time>2022-04-02T16:19:07Z</time>
      </trkpt>
      <trkpt lat="48.75497" lon="-3.54685">
        <ele>95</ele>
        <time>2022-04-02T16:19:26Z</time>
      </trkpt>
      <trkpt lat="48.75468" lon="-3.54807">
        <ele>93</ele>
        <time>2022-04-02T16:19:41Z</time>
      </trkpt>
      <trkpt lat="48.75407" lon="-3.54912">
        <ele>93</ele>
        <time>2022-04-02T16:19:58Z</time>
      </trkpt>
      <trkpt lat="48.75398" lon="-3.54936">
        <ele>92</ele>
        <time>2022-04-02T16:20:01Z</time>
      </trkpt>
      <trkpt lat="48.75374" lon="-3.54914">
        <ele>92</ele>
        <time>2022-04-02T16:20:06Z</time>
      </trkpt>
      <trkpt lat="48.75342" lon="-3.54844">
        <ele>92</ele>
        <time>2022-04-02T16:20:16Z</time>
      </trkpt>
      <trkpt lat="48.75325" lon="-3.5473">
        <ele>90</ele>
        <time>2022-04-02T16:20:30Z</time>
      </trkpt>
      <trkpt lat="48.75311" lon="-3.54617">
        <ele>89</ele>
        <time>2022-04-02T16:20:43Z</time>
      </trkpt>
      <trkpt lat="48.7531" lon="-3.54586">
        <ele>89</ele>
        <time>2022-04-02T16:20:47Z</time>
      </trkpt>
      <trkpt lat="48.75314" lon="-3.54549">
        <ele>87</ele>
        <time>2022-04-02T16:20:51Z</time>
      </trkpt>
      <trkpt lat="48.75331" lon="-3.5448">
        <ele>85</ele>
        <time>2022-04-02T16:21:00Z</time>
      </trkpt>
      <trkpt lat="48.75328" lon="-3.54431">
        <ele>82</ele>
        <time>2022-04-02T16:21:06Z</time>
      </trkpt>
      <trkpt lat="48.75338" lon="-3.54333">
        <ele>77</ele>
        <time>2022-04-02T16:21:17Z</time>
      </trkpt>
      <trkpt lat="48.75322" lon="-3.54271">
        <ele>74</ele>
        <time>2022-04-02T16:21:25Z</time>
      </trkpt>
      <trkpt lat="48.75314" lon="-3.54224">
        <ele>73</ele>
        <time>2022-04-02T16:21:31Z</time>
      </trkpt>
      <trkpt lat="48.75286" lon="-3.54137">
        <ele>67</ele>
        <time>2022-04-02T16:21:42Z</time>
      </trkpt>
      <trkpt lat="48.7529" lon="-3.54109">
        <ele>68</ele>
        <time>2022-04-02T16:21:46Z</time>
      </trkpt>
      <trkpt lat="48.75307" lon="-3.54082">
        <ele>70</ele>
        <time>2022-04-02T16:21:50Z</time>
      </trkpt>
      <trkpt lat="48.75347" lon="-3.53992">
        <ele>72</ele>
        <time>2022-04-02T16:22:03Z</time>
      </trkpt>
      <trkpt lat="48.75364" lon="-3.53959">
        <ele>71</ele>
        <time>2022-04-02T16:22:08Z</time>
      </trkpt>
      <trkpt lat="48.75383" lon="-3.5393">
        <ele>71</ele>
        <time>2022-04-02T16:22:12Z</time>
      </trkpt>
      <trkpt lat="48.75405" lon="-3.53911">
        <ele>73</ele>
        <time>2022-04-02T16:22:17Z</time>
      </trkpt>
      <trkpt lat="48.7542" lon="-3.53904">
        <ele>74</ele>
        <time>2022-04-02T16:22:20Z</time>
      </trkpt>
      <trkpt lat="48.75475" lon="-3.53826">
        <ele>75</ele>
        <time>2022-04-02T16:22:33Z</time>
      </trkpt>
      <trkpt lat="48.75508" lon="-3.53787">
        <ele>76</ele>
        <time>2022-04-02T16:22:41Z</time>
      </trkpt>
      <trkpt lat="48.7553" lon="-3.53747">
        <ele>77</ele>
        <time>2022-04-02T16:22:47Z</time>
      </trkpt>
      <trkpt lat="48.75576" lon="-3.53685">
        <ele>80</ele>
        <time>2022-04-02T16:22:58Z</time>
      </trkpt>
      <trkpt lat="48.75623" lon="-3.53556">
        <ele>84</ele>
        <time>2022-04-02T16:23:15Z</time>
      </trkpt>
      <trkpt lat="48.75684" lon="-3.53429">
        <ele>87</ele>
        <time>2022-04-02T16:23:33Z</time>
      </trkpt>
      <trkpt lat="48.75723" lon="-3.5331">
        <ele>89</ele>
        <time>2022-04-02T16:23:49Z</time>
      </trkpt>
      <trkpt lat="48.75777" lon="-3.5325">
        <ele>90</ele>
        <time>2022-04-02T16:24:01Z</time>
      </trkpt>
      <trkpt lat="48.75771" lon="-3.53149">
        <ele>94</ele>
        <time>2022-04-02T16:24:13Z</time>
      </trkpt>
      <trkpt lat="48.75772" lon="-3.53089">
        <ele>95</ele>
        <time>2022-04-02T16:24:20Z</time>
      </trkpt>
      <trkpt lat="48.75769" lon="-3.53072">
        <ele>95</ele>
        <time>2022-04-02T16:24:22Z</time>
      </trkpt>
      <trkpt lat="48.75772" lon="-3.53061">
        <ele>95</ele>
        <time>2022-04-02T16:24:23Z</time>
      </trkpt>
      <trkpt lat="48.75699" lon="-3.53094">
        <ele>97</ele>
        <time>2022-04-02T16:24:37Z</time>
      </trkpt>
      <trkpt lat="48.75678" lon="-3.53109">
        <ele>97</ele>
        <time>2022-04-02T16:24:41Z</time>
      </trkpt>
      <trkpt lat="48.75668" lon="-3.53109">
        <ele>97</ele>
        <time>2022-04-02T16:24:43Z</time>
      </trkpt>
      <trkpt lat="48.75661" lon="-3.53099">
        <ele>97</ele>
        <time>2022-04-02T16:24:44Z</time>
      </trkpt>
      <trkpt lat="48.7565" lon="-3.53057">
        <ele>98</ele>
        <time>2022-04-02T16:24:50Z</time>
      </trkpt>
      <trkpt lat="48.75631" lon="-3.53016">
        <ele>99</ele>
        <time>2022-04-02T16:24:56Z</time>
      </trkpt>
      <trkpt lat="48.75554" lon="-3.5299">
        <ele>100</ele>
        <time>2022-04-02T16:25:10Z</time>
      </trkpt>
      <trkpt lat="48.75462" lon="-3.52963">
        <ele>101</ele>
        <time>2022-04-02T16:25:26Z</time>
      </trkpt>
      <trkpt lat="48.7547" lon="-3.52689">
        <ele>103</ele>
        <time>2022-04-02T16:25:58Z</time>
      </trkpt>
      <trkpt lat="48.75468" lon="-3.52667">
        <ele>103</ele>
        <time>2022-04-02T16:26:01Z</time>
      </trkpt>
      <trkpt lat="48.75458" lon="-3.52634">
        <ele>103</ele>
        <time>2022-04-02T16:26:05Z</time>
      </trkpt>
      <trkpt lat="48.75447" lon="-3.52633">
        <ele>103</ele>
        <time>2022-04-02T16:26:07Z</time>
      </trkpt>
      <trkpt lat="48.75359" lon="-3.52585">
        <ele>103</ele>
        <time>2022-04-02T16:26:24Z</time>
      </trkpt>
      <trkpt lat="48.75313" lon="-3.52557">
        <ele>103</ele>
        <time>2022-04-02T16:26:33Z</time>
      </trkpt>
      <trkpt lat="48.75269" lon="-3.52527">
        <ele>102</ele>
        <time>2022-04-02T16:26:41Z</time>
      </trkpt>
      <trkpt lat="48.7518" lon="-3.52459">
        <ele>101</ele>
        <time>2022-04-02T16:26:59Z</time>
      </trkpt>
      <trkpt lat="48.75146" lon="-3.52439">
        <ele>100</ele>
        <time>2022-04-02T16:27:06Z</time>
      </trkpt>
      <trkpt lat="48.7513" lon="-3.52443">
        <ele>100</ele>
        <time>2022-04-02T16:27:08Z</time>
      </trkpt>
      <trkpt lat="48.75069" lon="-3.52501">
        <ele>99</ele>
        <time>2022-04-02T16:27:21Z</time>
      </trkpt>
      <trkpt lat="48.75008" lon="-3.52431">
        <ele>100</ele>
        <time>2022-04-02T16:27:35Z</time>
      </trkpt>
      <trkpt lat="48.75035" lon="-3.52309">
        <ele>102</ele>
        <time>2022-04-02T16:27:50Z</time>
      </trkpt>
      <trkpt lat="48.75044" lon="-3.52286">
        <ele>103</ele>
        <time>2022-04-02T16:27:53Z</time>
      </trkpt>
      <trkpt lat="48.75032" lon="-3.52247">
        <ele>103</ele>
        <time>2022-04-02T16:27:58Z</time>
      </trkpt>
      <trkpt lat="48.75023" lon="-3.52169">
        <ele>103</ele>
        <time>2022-04-02T16:28:07Z</time>
      </trkpt>
      <trkpt lat="48.75003" lon="-3.52065">
        <ele>103</ele>
        <time>2022-04-02T16:28:20Z</time>
      </trkpt>
      <trkpt lat="48.74996" lon="-3.51977">
        <ele>105</ele>
        <time>2022-04-02T16:28:30Z</time>
      </trkpt>
      <trkpt lat="48.74931" lon="-3.51784">
        <ele>105</ele>
        <time>2022-04-02T16:28:56Z</time>
      </trkpt>
      <trkpt lat="48.74919" lon="-3.51678">
        <ele>103</ele>
        <time>2022-04-02T16:29:09Z</time>
      </trkpt>
      <trkpt lat="48.74899" lon="-3.51545">
        <ele>103</ele>
        <time>2022-04-02T16:29:25Z</time>
      </trkpt>
      <trkpt lat="48.74897" lon="-3.51469">
        <ele>103</ele>
        <time>2022-04-02T16:29:33Z</time>
      </trkpt>
      <trkpt lat="48.74869" lon="-3.51357">
        <ele>101</ele>
        <time>2022-04-02T16:29:48Z</time>
      </trkpt>
      <trkpt lat="48.74853" lon="-3.51258">
        <ele>100</ele>
        <time>2022-04-02T16:29:59Z</time>
      </trkpt>
      <trkpt lat="48.74847" lon="-3.51204">
        <ele>100</ele>
        <time>2022-04-02T16:30:06Z</time>
      </trkpt>
      <trkpt lat="48.74852" lon="-3.51007">
        <ele>100</ele>
        <time>2022-04-02T16:30:29Z</time>
      </trkpt>
      <trkpt lat="48.74849" lon="-3.50939">
        <ele>101</ele>
        <time>2022-04-02T16:30:37Z</time>
      </trkpt>
      <trkpt lat="48.74806" lon="-3.5083">
        <ele>101</ele>
        <time>2022-04-02T16:30:52Z</time>
      </trkpt>
      <trkpt lat="48.74797" lon="-3.50792">
        <ele>100</ele>
        <time>2022-04-02T16:30:57Z</time>
      </trkpt>
      <trkpt lat="48.74797" lon="-3.5074">
        <ele>100</ele>
        <time>2022-04-02T16:31:03Z</time>
      </trkpt>
      <trkpt lat="48.7479" lon="-3.50632">
        <ele>100</ele>
        <time>2022-04-02T16:31:15Z</time>
      </trkpt>
      <trkpt lat="48.74785" lon="-3.50602">
        <ele>100</ele>
        <time>2022-04-02T16:31:19Z</time>
      </trkpt>
      <trkpt lat="48.74775" lon="-3.50576">
        <ele>101</ele>
        <time>2022-04-02T16:31:23Z</time>
      </trkpt>
      <trkpt lat="48.74494" lon="-3.50125">
        <ele>92</ele>
        <time>2022-04-02T16:32:35Z</time>
      </trkpt>
      <trkpt lat="48.74448" lon="-3.50068">
        <ele>92</ele>
        <time>2022-04-02T16:32:46Z</time>
      </trkpt>
      <trkpt lat="48.74453" lon="-3.50001">
        <ele>91</ele>
        <time>2022-04-02T16:32:54Z</time>
      </trkpt>
      <trkpt lat="48.74489" lon="-3.49855">
        <ele>91</ele>
        <time>2022-04-02T16:33:12Z</time>
      </trkpt>
      <trkpt lat="48.74514" lon="-3.49701">
        <ele>88</ele>
        <time>2022-04-02T16:33:31Z</time>
      </trkpt>
      <trkpt lat="48.74517" lon="-3.49654">
        <ele>88</ele>
        <time>2022-04-02T16:33:36Z</time>
      </trkpt>
      <trkpt lat="48.74511" lon="-3.49566">
        <ele>89</ele>
        <time>2022-04-02T16:33:47Z</time>
      </trkpt>
      <trkpt lat="48.74511" lon="-3.49521">
        <ele>90</ele>
        <time>2022-04-02T16:33:52Z</time>
      </trkpt>
      <trkpt lat="48.74514" lon="-3.49495">
        <ele>91</ele>
        <time>2022-04-02T16:33:55Z</time>
      </trkpt>
      <trkpt lat="48.74559" lon="-3.49383">
        <ele>97</ele>
        <time>2022-04-02T16:34:11Z</time>
      </trkpt>
      <trkpt lat="48.7458" lon="-3.49317">
        <ele>98</ele>
        <time>2022-04-02T16:34:19Z</time>
      </trkpt>
      <trkpt lat="48.7458" lon="-3.4925">
        <ele>99</ele>
        <time>2022-04-02T16:34:27Z</time>
      </trkpt>
      <trkpt lat="48.74587" lon="-3.4917">
        <ele>98</ele>
        <time>2022-04-02T16:34:36Z</time>
      </trkpt>
      <trkpt lat="48.74594" lon="-3.48994">
        <ele>98</ele>
        <time>2022-04-02T16:34:57Z</time>
      </trkpt>
      <trkpt lat="48.74588" lon="-3.48893">
        <ele>99</ele>
        <time>2022-04-02T16:35:09Z</time>
      </trkpt>
      <trkpt lat="48.74576" lon="-3.48877">
        <ele>98</ele>
        <time>2022-04-02T16:35:12Z</time>
      </trkpt>
      <trkpt lat="48.74569" lon="-3.48855">
        <ele>97</ele>
        <time>2022-04-02T16:35:15Z</time>
      </trkpt>
      <trkpt lat="48.74569" lon="-3.4883">
        <ele>97</ele>
        <time>2022-04-02T16:35:18Z</time>
      </trkpt>
      <trkpt lat="48.74578" lon="-3.48815">
        <ele>97</ele>
        <time>2022-04-02T16:35:20Z</time>
      </trkpt>
      <trkpt lat="48.74594" lon="-3.48806">
        <ele>97</ele>
        <time>2022-04-02T16:35:23Z</time>
      </trkpt>
      <trkpt lat="48.746" lon="-3.48794">
        <ele>96</ele>
        <time>2022-04-02T16:35:25Z</time>
      </trkpt>
      <trkpt lat="48.74609" lon="-3.4871">
        <ele>92</ele>
        <time>2022-04-02T16:35:35Z</time>
      </trkpt>
      <trkpt lat="48.74591" lon="-3.48559">
        <ele>81</ele>
        <time>2022-04-02T16:35:53Z</time>
      </trkpt>
      <trkpt lat="48.74593" lon="-3.48404">
        <ele>75</ele>
        <time>2022-04-02T16:36:11Z</time>
      </trkpt>
      <trkpt lat="48.74607" lon="-3.48288">
        <ele>76</ele>
        <time>2022-04-02T16:36:25Z</time>
      </trkpt>
      <trkpt lat="48.74562" lon="-3.48272">
        <ele>74</ele>
        <time>2022-04-02T16:36:33Z</time>
      </trkpt>
      <trkpt lat="48.74533" lon="-3.48266">
        <ele>73</ele>
        <time>2022-04-02T16:36:38Z</time>
      </trkpt>
      <trkpt lat="48.74476" lon="-3.48264">
        <ele>69</ele>
        <time>2022-04-02T16:36:48Z</time>
      </trkpt>
      <trkpt lat="48.74437" lon="-3.48273">
        <ele>66</ele>
        <time>2022-04-02T16:36:55Z</time>
      </trkpt>
      <trkpt lat="48.74423" lon="-3.48269">
        <ele>65</ele>
        <time>2022-04-02T16:36:58Z</time>
      </trkpt>
      <trkpt lat="48.74384" lon="-3.48222">
        <ele>62</ele>
        <time>2022-04-02T16:37:07Z</time>
      </trkpt>
      <trkpt lat="48.74321" lon="-3.48219">
        <ele>61</ele>
        <time>2022-04-02T16:37:18Z</time>
      </trkpt>
      <trkpt lat="48.74308" lon="-3.48205">
        <ele>61</ele>
        <time>2022-04-02T16:37:21Z</time>
      </trkpt>
      <trkpt lat="48.74277" lon="-3.48133">
        <ele>62</ele>
        <time>2022-04-02T16:37:31Z</time>
      </trkpt>
      <trkpt lat="48.74279" lon="-3.48107">
        <ele>63</ele>
        <time>2022-04-02T16:37:34Z</time>
      </trkpt>
      <trkpt lat="48.74294" lon="-3.4807">
        <ele>64</ele>
        <time>2022-04-02T16:37:39Z</time>
      </trkpt>
      <trkpt lat="48.74315" lon="-3.47989">
        <ele>65</ele>
        <time>2022-04-02T16:37:49Z</time>
      </trkpt>
      <trkpt lat="48.74331" lon="-3.47905">
        <ele>67</ele>
        <time>2022-04-02T16:38:00Z</time>
      </trkpt>
      <trkpt lat="48.74303" lon="-3.47844">
        <ele>66</ele>
        <time>2022-04-02T16:38:08Z</time>
      </trkpt>
      <trkpt lat="48.7429" lon="-3.47809">
        <ele>65</ele>
        <time>2022-04-02T16:38:13Z</time>
      </trkpt>
      <trkpt lat="48.74261" lon="-3.47762">
        <ele>63</ele>
        <time>2022-04-02T16:38:21Z</time>
      </trkpt>
      <trkpt lat="48.74248" lon="-3.47758">
        <ele>62</ele>
        <time>2022-04-02T16:38:23Z</time>
      </trkpt>
      <trkpt lat="48.74239" lon="-3.47721">
        <ele>62</ele>
        <time>2022-04-02T16:38:28Z</time>
      </trkpt>
      <trkpt lat="48.74224" lon="-3.47706">
        <ele>61</ele>
        <time>2022-04-02T16:38:31Z</time>
      </trkpt>
      <trkpt lat="48.74208" lon="-3.47679">
        <ele>61</ele>
        <time>2022-04-02T16:38:35Z</time>
      </trkpt>
      <trkpt lat="48.74218" lon="-3.47667">
        <ele>62</ele>
        <time>2022-04-02T16:38:37Z</time>
      </trkpt>
      <trkpt lat="48.74226" lon="-3.47652">
        <ele>63</ele>
        <time>2022-04-02T16:38:40Z</time>
      </trkpt>
      <trkpt lat="48.74196" lon="-3.47508">
        <ele>66</ele>
        <time>2022-04-02T16:38:57Z</time>
      </trkpt>
      <trkpt lat="48.74194" lon="-3.47467">
        <ele>66</ele>
        <time>2022-04-02T16:39:02Z</time>
      </trkpt>
      <trkpt lat="48.74196" lon="-3.47431">
        <ele>66</ele>
        <time>2022-04-02T16:39:06Z</time>
      </trkpt>
      <trkpt lat="48.74205" lon="-3.47403">
        <ele>67</ele>
        <time>2022-04-02T16:39:10Z</time>
      </trkpt>
      <trkpt lat="48.74236" lon="-3.47359">
        <ele>70</ele>
        <time>2022-04-02T16:39:18Z</time>
      </trkpt>
      <trkpt lat="48.74262" lon="-3.47336">
        <ele>71</ele>
        <time>2022-04-02T16:39:23Z</time>
      </trkpt>
      <trkpt lat="48.7426" lon="-3.47322">
        <ele>71</ele>
        <time>2022-04-02T16:39:25Z</time>
      </trkpt>
      <trkpt lat="48.74271" lon="-3.47301">
        <ele>71</ele>
        <time>2022-04-02T16:39:28Z</time>
      </trkpt>
      <trkpt lat="48.74289" lon="-3.47311">
        <ele>72</ele>
        <time>2022-04-02T16:39:31Z</time>
      </trkpt>
      <trkpt lat="48.74323" lon="-3.47277">
        <ele>72</ele>
        <time>2022-04-02T16:39:38Z</time>
      </trkpt>
      <trkpt lat="48.74323" lon="-3.47268">
        <ele>72</ele>
        <time>2022-04-02T16:39:39Z</time>
      </trkpt>
      <trkpt lat="48.74332" lon="-3.47268">
        <ele>72</ele>
        <time>2022-04-02T16:39:41Z</time>
      </trkpt>
      <trkpt lat="48.74529" lon="-3.47079">
        <ele>75</ele>
        <time>2022-04-02T16:40:23Z</time>
      </trkpt>
      <trkpt lat="48.7456" lon="-3.4704">
        <ele>77</ele>
        <time>2022-04-02T16:40:30Z</time>
      </trkpt>
      <trkpt lat="48.74585" lon="-3.47">
        <ele>78</ele>
        <time>2022-04-02T16:40:36Z</time>
      </trkpt>
      <trkpt lat="48.74603" lon="-3.46956">
        <ele>78</ele>
        <time>2022-04-02T16:40:42Z</time>
      </trkpt>
      <trkpt lat="48.74617" lon="-3.46912">
        <ele>78</ele>
        <time>2022-04-02T16:40:48Z</time>
      </trkpt>
      <trkpt lat="48.74624" lon="-3.46872">
        <ele>77</ele>
        <time>2022-04-02T16:40:53Z</time>
      </trkpt>
      <trkpt lat="48.7464" lon="-3.46675">
        <ele>74</ele>
        <time>2022-04-02T16:41:16Z</time>
      </trkpt>
      <trkpt lat="48.74634" lon="-3.46661">
        <ele>74</ele>
        <time>2022-04-02T16:41:18Z</time>
      </trkpt>
      <trkpt lat="48.74604" lon="-3.46645">
        <ele>74</ele>
        <time>2022-04-02T16:41:24Z</time>
      </trkpt>
      <trkpt lat="48.74563" lon="-3.4661">
        <ele>73</ele>
        <time>2022-04-02T16:41:32Z</time>
      </trkpt>
      <trkpt lat="48.74516" lon="-3.46581">
        <ele>71</ele>
        <time>2022-04-02T16:41:41Z</time>
      </trkpt>
      <trkpt lat="48.74472" lon="-3.46557">
        <ele>70</ele>
        <time>2022-04-02T16:41:49Z</time>
      </trkpt>
      <trkpt lat="48.74385" lon="-3.4652">
        <ele>66</ele>
        <time>2022-04-02T16:42:06Z</time>
      </trkpt>
      <trkpt lat="48.74246" lon="-3.46478">
        <ele>59</ele>
        <time>2022-04-02T16:42:31Z</time>
      </trkpt>
      <trkpt lat="48.74062" lon="-3.46431">
        <ele>50</ele>
        <time>2022-04-02T16:43:04Z</time>
      </trkpt>
      <trkpt lat="48.73968" lon="-3.4641">
        <ele>46</ele>
        <time>2022-04-02T16:43:21Z</time>
      </trkpt>
      <trkpt lat="48.73895" lon="-3.46375">
        <ele>46</ele>
        <time>2022-04-02T16:43:35Z</time>
      </trkpt>
      <trkpt lat="48.73896" lon="-3.46357">
        <ele>46</ele>
        <time>2022-04-02T16:43:37Z</time>
      </trkpt>
      <trkpt lat="48.73935" lon="-3.46329">
        <ele>48</ele>
        <time>2022-04-02T16:43:44Z</time>
      </trkpt>
      <trkpt lat="48.73928" lon="-3.46303">
        <ele>49</ele>
        <time>2022-04-02T16:43:48Z</time>
      </trkpt>
      <trkpt lat="48.73757" lon="-3.46201">
        <ele>49</ele>
        <time>2022-04-02T16:44:20Z</time>
      </trkpt>
      <trkpt lat="48.73667" lon="-3.4614">
        <ele>50</ele>
        <time>2022-04-02T16:44:38Z</time>
      </trkpt>
      <trkpt lat="48.73586" lon="-3.461">
        <ele>50</ele>
        <time>2022-04-02T16:44:53Z</time>
      </trkpt>
      <trkpt lat="48.73588" lon="-3.46013">
        <ele>46</ele>
        <time>2022-04-02T16:45:03Z</time>
      </trkpt>
      <trkpt lat="48.73601" lon="-3.45981">
        <ele>45</ele>
        <time>2022-04-02T16:45:08Z</time>
      </trkpt>
      <trkpt lat="48.73614" lon="-3.45962">
        <ele>46</ele>
        <time>2022-04-02T16:45:11Z</time>
      </trkpt>
      <trkpt lat="48.73617" lon="-3.45914">
        <ele>45</ele>
        <time>2022-04-02T16:45:16Z</time>
      </trkpt>
      <trkpt lat="48.73622" lon="-3.45892">
        <ele>44</ele>
        <time>2022-04-02T16:45:19Z</time>
      </trkpt>
      <trkpt lat="48.7365" lon="-3.45826">
        <ele>44</ele>
        <time>2022-04-02T16:45:28Z</time>
      </trkpt>
      <trkpt lat="48.73669" lon="-3.45798">
        <ele>44</ele>
        <time>2022-04-02T16:45:33Z</time>
      </trkpt>
      <trkpt lat="48.73691" lon="-3.45747">
        <ele>41</ele>
        <time>2022-04-02T16:45:40Z</time>
      </trkpt>
      <trkpt lat="48.73705" lon="-3.45699">
        <ele>39</ele>
        <time>2022-04-02T16:45:46Z</time>
      </trkpt>
      <trkpt lat="48.7372" lon="-3.45661">
        <ele>37</ele>
        <time>2022-04-02T16:45:52Z</time>
      </trkpt>
      <trkpt lat="48.73727" lon="-3.45611">
        <ele>32</ele>
        <time>2022-04-02T16:45:58Z</time>
      </trkpt>
      <trkpt lat="48.73724" lon="-3.45603">
        <ele>31</ele>
        <time>2022-04-02T16:45:59Z</time>
      </trkpt>
      <trkpt lat="48.73726" lon="-3.45597">
        <ele>31</ele>
        <time>2022-04-02T16:46:00Z</time>
      </trkpt>
      <trkpt lat="48.73716" lon="-3.45575">
        <ele>29</ele>
        <time>2022-04-02T16:46:03Z</time>
      </trkpt>
      <trkpt lat="48.73705" lon="-3.45536">
        <ele>30</ele>
        <time>2022-04-02T16:46:08Z</time>
      </trkpt>
      <trkpt lat="48.73705" lon="-3.45525">
        <ele>30</ele>
        <time>2022-04-02T16:46:09Z</time>
      </trkpt>
      <trkpt lat="48.7369" lon="-3.45528">
        <ele>30</ele>
        <time>2022-04-02T16:46:12Z</time>
      </trkpt>
      <trkpt lat="48.73649" lon="-3.4552">
        <ele>27</ele>
        <time>2022-04-02T16:46:19Z</time>
      </trkpt>
      <trkpt lat="48.73612" lon="-3.45505">
        <ele>23</ele>
        <time>2022-04-02T16:46:26Z</time>
      </trkpt>
      <trkpt lat="48.73576" lon="-3.45507">
        <ele>20</ele>
        <time>2022-04-02T16:46:32Z</time>
      </trkpt>
      <trkpt lat="48.73545" lon="-3.45528">
        <ele>18</ele>
        <time>2022-04-02T16:46:38Z</time>
      </trkpt>
      <trkpt lat="48.73536" lon="-3.45526">
        <ele>17</ele>
        <time>2022-04-02T16:46:40Z</time>
      </trkpt>
      <trkpt lat="48.73501" lon="-3.45532">
        <ele>14</ele>
        <time>2022-04-02T16:46:46Z</time>
      </trkpt>
      <trkpt lat="48.73462" lon="-3.4568">
        <ele>17</ele>
        <time>2022-04-02T16:47:05Z</time>
      </trkpt>
      <trkpt lat="48.73449" lon="-3.45685">
        <ele>18</ele>
        <time>2022-04-02T16:47:07Z</time>
      </trkpt>
      <trkpt lat="48.7344" lon="-3.45679">
        <ele>19</ele>
        <time>2022-04-02T16:47:09Z</time>
      </trkpt>
      <trkpt lat="48.73435" lon="-3.45716">
        <ele>19</ele>
        <time>2022-04-02T16:47:13Z</time>
      </trkpt>
      <trkpt lat="48.73452" lon="-3.45785">
        <ele>19</ele>
        <time>2022-04-02T16:47:22Z</time>
      </trkpt>
      <trkpt lat="48.73457" lon="-3.45825">
        <ele>19</ele>
        <time>2022-04-02T16:47:27Z</time>
      </trkpt>
      <trkpt lat="48.73456" lon="-3.45862">
        <ele>17</ele>
        <time>2022-04-02T16:47:31Z</time>
      </trkpt>
      <trkpt lat="48.73446" lon="-3.45901">
        <ele>15</ele>
        <time>2022-04-02T16:47:36Z</time>
      </trkpt>
      <trkpt lat="48.73478" lon="-3.45936">
        <ele>18</ele>
        <time>2022-04-02T16:47:43Z</time>
      </trkpt>
      <trkpt lat="48.73441" lon="-3.45973">
        <ele>16</ele>
        <time>2022-04-02T16:47:51Z</time>
      </trkpt>
      <trkpt lat="48.73409" lon="-3.45993">
        <ele>12</ele>
        <time>2022-04-02T16:47:57Z</time>
      </trkpt>
      <trkpt lat="48.73384" lon="-3.46024">
        <ele>12</ele>
        <time>2022-04-02T16:48:03Z</time>
      </trkpt>
      <trkpt lat="48.73372" lon="-3.46025">
        <ele>12</ele>
        <time>2022-04-02T16:48:05Z</time>
      </trkpt>
      <trkpt lat="48.73348" lon="-3.45944">
        <ele>15</ele>
        <time>2022-04-02T16:48:15Z</time>
      </trkpt>
      <trkpt lat="48.73323" lon="-3.45956">
        <ele>15</ele>
        <time>2022-04-02T16:48:20Z</time>
      </trkpt>
      <trkpt lat="48.73292" lon="-3.45989">
        <ele>14</ele>
        <time>2022-04-02T16:48:27Z</time>
      </trkpt>
      <trkpt lat="48.73238" lon="-3.45973">
        <ele>17</ele>
        <time>2022-04-02T16:48:37Z</time>
      </trkpt>
      <trkpt lat="48.73224" lon="-3.45897">
        <ele>20</ele>
        <time>2022-04-02T16:48:46Z</time>
      </trkpt>
      <trkpt lat="48.73151" lon="-3.4573">
        <ele>23</ele>
        <time>2022-04-02T16:49:09Z</time>
      </trkpt>
      <trkpt lat="48.73108" lon="-3.45817">
        <ele>16</ele>
        <time>2022-04-02T16:49:22Z</time>
      </trkpt>
      <trkpt lat="48.73016" lon="-3.45788">
        <ele>14</ele>
        <time>2022-04-02T16:49:39Z</time>
      </trkpt>
      <trkpt lat="48.72948" lon="-3.45763">
        <ele>15</ele>
        <time>2022-04-02T16:49:51Z</time>
      </trkpt>
      <trkpt lat="48.72914" lon="-3.45704">
        <ele>17</ele>
        <time>2022-04-02T16:50:01Z</time>
      </trkpt>
      <trkpt lat="48.72867" lon="-3.45668">
        <ele>13</ele>
        <time>2022-04-02T16:50:10Z</time>
      </trkpt>
      <trkpt lat="48.72838" lon="-3.45694">
        <ele>8</ele>
        <time>2022-04-02T16:50:16Z</time>
      </trkpt>
      <trkpt lat="48.72819" lon="-3.4573">
        <ele>5</ele>
        <time>2022-04-02T16:50:21Z</time>
      </trkpt>
      <trkpt lat="48.72803" lon="-3.45779">
        <ele>4</ele>
        <time>2022-04-02T16:50:28Z</time>
      </trkpt>
      <trkpt lat="48.72782" lon="-3.45861">
        <ele>4</ele>
        <time>2022-04-02T16:50:38Z</time>
      </trkpt>
      <trkpt lat="48.72728" lon="-3.45836">
        <ele>7</ele>
        <time>2022-04-02T16:50:48Z</time>
      </trkpt>
      <trkpt lat="48.72673" lon="-3.45743">
        <ele>7</ele>
        <time>2022-04-02T16:51:03Z</time>
      </trkpt>
      <trkpt lat="48.72609" lon="-3.45682">
        <ele>19</ele>
        <time>2022-04-02T16:51:16Z</time>
      </trkpt>
      <trkpt lat="48.72541" lon="-3.45527">
        <ele>19</ele>
        <time>2022-04-02T16:51:38Z</time>
      </trkpt>
      <trkpt lat="48.72518" lon="-3.45487">
        <ele>20</ele>
        <time>2022-04-02T16:51:44Z</time>
      </trkpt>
      <trkpt lat="48.72495" lon="-3.45459">
        <ele>19</ele>
        <time>2022-04-02T16:51:50Z</time>
      </trkpt>
      <trkpt lat="48.72421" lon="-3.45229">
        <ele>5</ele>
        <time>2022-04-02T16:52:20Z</time>
      </trkpt>
      <trkpt lat="48.72335" lon="-3.45025">
        <ele>7</ele>
        <time>2022-04-02T16:52:48Z</time>
      </trkpt>
      <trkpt lat="48.72292" lon="-3.4494">
        <ele>8</ele>
        <time>2022-04-02T16:53:01Z</time>
      </trkpt>
      <trkpt lat="48.72267" lon="-3.44802">
        <ele>8</ele>
        <time>2022-04-02T16:53:17Z</time>
      </trkpt>
      <trkpt lat="48.72257" lon="-3.44775">
        <ele>7</ele>
        <time>2022-04-02T16:53:21Z</time>
      </trkpt>
      <trkpt lat="48.72233" lon="-3.44761">
        <ele>9</ele>
        <time>2022-04-02T16:53:26Z</time>
      </trkpt>
      <trkpt lat="48.72181" lon="-3.44758">
        <ele>16</ele>
        <time>2022-04-02T16:53:35Z</time>
      </trkpt>
      <trkpt lat="48.72155" lon="-3.44738">
        <ele>19</ele>
        <time>2022-04-02T16:53:40Z</time>
      </trkpt>
      <trkpt lat="48.72132" lon="-3.44697">
        <ele>24</ele>
        <time>2022-04-02T16:53:46Z</time>
      </trkpt>
      <trkpt lat="48.72125" lon="-3.44635">
        <ele>24</ele>
        <time>2022-04-02T16:53:54Z</time>
      </trkpt>
      <trkpt lat="48.7212" lon="-3.44549">
        <ele>24</ele>
        <time>2022-04-02T16:54:04Z</time>
      </trkpt>
      <trkpt lat="48.72101" lon="-3.44508">
        <ele>27</ele>
        <time>2022-04-02T16:54:10Z</time>
      </trkpt>
      <trkpt lat="48.72074" lon="-3.44481">
        <ele>30</ele>
        <time>2022-04-02T16:54:15Z</time>
      </trkpt>
      <trkpt lat="48.72022" lon="-3.44454">
        <ele>33</ele>
        <time>2022-04-02T16:54:25Z</time>
      </trkpt>
      <trkpt lat="48.72028" lon="-3.44658">
        <ele>42</ele>
        <time>2022-04-02T16:54:49Z</time>
      </trkpt>
      <trkpt lat="48.72022" lon="-3.44829">
        <ele>50</ele>
        <time>2022-04-02T16:55:09Z</time>
      </trkpt>
      <trkpt lat="48.72016" lon="-3.44839">
        <ele>51</ele>
        <time>2022-04-02T16:55:11Z</time>
      </trkpt>
      <trkpt lat="48.71921" lon="-3.44822">
        <ele>56</ele>
        <time>2022-04-02T16:55:28Z</time>
      </trkpt>
      <trkpt lat="48.71841" lon="-3.44826">
        <ele>58</ele>
        <time>2022-04-02T16:55:42Z</time>
      </trkpt>
      <trkpt lat="48.71822" lon="-3.44841">
        <ele>59</ele>
        <time>2022-04-02T16:55:46Z</time>
      </trkpt>
      <trkpt lat="48.71809" lon="-3.44867">
        <ele>61</ele>
        <time>2022-04-02T16:55:50Z</time>
      </trkpt>
      <trkpt lat="48.71805" lon="-3.44953">
        <ele>63</ele>
        <time>2022-04-02T16:56:00Z</time>
      </trkpt>
      <trkpt lat="48.71809" lon="-3.45073">
        <ele>61</ele>
        <time>2022-04-02T16:56:14Z</time>
      </trkpt>
      <trkpt lat="48.71816" lon="-3.45119">
        <ele>59</ele>
        <time>2022-04-02T16:56:20Z</time>
      </trkpt>
      <trkpt lat="48.71814" lon="-3.4517">
        <ele>58</ele>
        <time>2022-04-02T16:56:26Z</time>
      </trkpt>
      <trkpt lat="48.71778" lon="-3.45313">
        <ele>58</ele>
        <time>2022-04-02T16:56:44Z</time>
      </trkpt>
      <trkpt lat="48.71702" lon="-3.45282">
        <ele>59</ele>
        <time>2022-04-02T16:56:58Z</time>
      </trkpt>
      <trkpt lat="48.71632" lon="-3.4526">
        <ele>60</ele>
        <time>2022-04-02T16:57:10Z</time>
      </trkpt>
      <trkpt lat="48.71571" lon="-3.45251">
        <ele>60</ele>
        <time>2022-04-02T16:57:21Z</time>
      </trkpt>
      <trkpt lat="48.71618" lon="-3.45372">
        <ele>56</ele>
        <time>2022-04-02T16:57:38Z</time>
      </trkpt>
      <trkpt lat="48.71587" lon="-3.45373">
        <ele>56</ele>
        <time>2022-04-02T16:57:43Z</time>
      </trkpt>
      <trkpt lat="48.71508" lon="-3.45355">
        <ele>56</ele>
        <time>2022-04-02T16:57:57Z</time>
      </trkpt>
      <trkpt lat="48.7144" lon="-3.45347">
        <ele>55</ele>
        <time>2022-04-02T16:58:10Z</time>
      </trkpt>
      <trkpt lat="48.71297" lon="-3.45377">
        <ele>52</ele>
        <time>2022-04-02T16:58:35Z</time>
      </trkpt>
      <trkpt lat="48.71149" lon="-3.45396">
        <ele>52</ele>
        <time>2022-04-02T16:59:02Z</time>
      </trkpt>
      <trkpt lat="48.71077" lon="-3.4541">
        <ele>52</ele>
        <time>2022-04-02T16:59:15Z</time>
      </trkpt>
      <trkpt lat="48.71006" lon="-3.45436">
        <ele>53</ele>
        <time>2022-04-02T16:59:28Z</time>
      </trkpt>
      <trkpt lat="48.70883" lon="-3.45453">
        <ele>57</ele>
        <time>2022-04-02T16:59:50Z</time>
      </trkpt>
      <trkpt lat="48.70833" lon="-3.45641">
        <ele>53</ele>
        <time>2022-04-02T17:00:13Z</time>
      </trkpt>
      <trkpt lat="48.70772" lon="-3.45691">
        <ele>57</ele>
        <time>2022-04-02T17:00:26Z</time>
      </trkpt>
      <trkpt lat="48.70746" lon="-3.45746">
        <ele>57</ele>
        <time>2022-04-02T17:00:34Z</time>
      </trkpt>
      <trkpt lat="48.70729" lon="-3.4576">
        <ele>58</ele>
        <time>2022-04-02T17:00:37Z</time>
      </trkpt>
      <trkpt lat="48.70702" lon="-3.45756">
        <ele>59</ele>
        <time>2022-04-02T17:00:42Z</time>
      </trkpt>
      <trkpt lat="48.70623" lon="-3.4568">
        <ele>66</ele>
        <time>2022-04-02T17:00:59Z</time>
      </trkpt>
      <trkpt lat="48.70585" lon="-3.45795">
        <ele>67</ele>
        <time>2022-04-02T17:01:14Z</time>
      </trkpt>
      <trkpt lat="48.70608" lon="-3.45831">
        <ele>66</ele>
        <time>2022-04-02T17:01:20Z</time>
      </trkpt>
      <trkpt lat="48.70665" lon="-3.4588">
        <ele>63</ele>
        <time>2022-04-02T17:01:31Z</time>
      </trkpt>
      <trkpt lat="48.70681" lon="-3.4592">
        <ele>63</ele>
        <time>2022-04-02T17:01:37Z</time>
      </trkpt>
      <trkpt lat="48.70681" lon="-3.45954">
        <ele>65</ele>
        <time>2022-04-02T17:01:41Z</time>
      </trkpt>
      <trkpt lat="48.70663" lon="-3.46049">
        <ele>67</ele>
        <time>2022-04-02T17:01:52Z</time>
      </trkpt>
      <trkpt lat="48.70665" lon="-3.46239">
        <ele>66</ele>
        <time>2022-04-02T17:02:15Z</time>
      </trkpt>
      <trkpt lat="48.70669" lon="-3.46283">
        <ele>65</ele>
        <time>2022-04-02T17:02:20Z</time>
      </trkpt>
      <trkpt lat="48.70723" lon="-3.46444">
        <ele>59</ele>
        <time>2022-04-02T17:02:41Z</time>
      </trkpt>
      <trkpt lat="48.70811" lon="-3.46615">
        <ele>50</ele>
        <time>2022-04-02T17:03:06Z</time>
      </trkpt>
      <trkpt lat="48.70862" lon="-3.46625">
        <ele>47</ele>
        <time>2022-04-02T17:03:16Z</time>
      </trkpt>
      <trkpt lat="48.71001" lon="-3.4671">
        <ele>34</ele>
        <time>2022-04-02T17:03:42Z</time>
      </trkpt>
      <trkpt lat="48.71023" lon="-3.46732">
        <ele>31</ele>
        <time>2022-04-02T17:03:47Z</time>
      </trkpt>
      <trkpt lat="48.71061" lon="-3.46901">
        <ele>30</ele>
        <time>2022-04-02T17:04:08Z</time>
      </trkpt>
      <trkpt lat="48.71053" lon="-3.46933">
        <ele>31</ele>
        <time>2022-04-02T17:04:12Z</time>
      </trkpt>
      <trkpt lat="48.71022" lon="-3.46979">
        <ele>30</ele>
        <time>2022-04-02T17:04:20Z</time>
      </trkpt>
      <trkpt lat="48.71003" lon="-3.46979">
        <ele>26</ele>
        <time>2022-04-02T17:04:23Z</time>
      </trkpt>
      <trkpt lat="48.70942" lon="-3.47025">
        <ele>28</ele>
        <time>2022-04-02T17:04:35Z</time>
      </trkpt>
      <trkpt lat="48.70894" lon="-3.4731">
        <ele>38</ele>
        <time>2022-04-02T17:05:10Z</time>
      </trkpt>
      <trkpt lat="48.70867" lon="-3.474">
        <ele>44</ele>
        <time>2022-04-02T17:05:21Z</time>
      </trkpt>
      <trkpt lat="48.70847" lon="-3.47602">
        <ele>53</ele>
        <time>2022-04-02T17:05:45Z</time>
      </trkpt>
      <trkpt lat="48.70838" lon="-3.47654">
        <ele>55</ele>
        <time>2022-04-02T17:05:52Z</time>
      </trkpt>
      <trkpt lat="48.70803" lon="-3.47806">
        <ele>58</ele>
        <time>2022-04-02T17:06:11Z</time>
      </trkpt>
      <trkpt lat="48.7079" lon="-3.47886">
        <ele>60</ele>
        <time>2022-04-02T17:06:20Z</time>
      </trkpt>
      <trkpt lat="48.70704" lon="-3.48089">
        <ele>65</ele>
        <time>2022-04-02T17:06:49Z</time>
      </trkpt>
      <trkpt lat="48.70513" lon="-3.48414">
        <ele>66</ele>
        <time>2022-04-02T17:07:40Z</time>
      </trkpt>
      <trkpt lat="48.70436" lon="-3.48535">
        <ele>68</ele>
        <time>2022-04-02T17:07:59Z</time>
      </trkpt>
      <trkpt lat="48.70345" lon="-3.48655">
        <ele>70</ele>
        <time>2022-04-02T17:08:21Z</time>
      </trkpt>
      <trkpt lat="48.70304" lon="-3.48725">
        <ele>72</ele>
        <time>2022-04-02T17:08:32Z</time>
      </trkpt>
      <trkpt lat="48.70277" lon="-3.4883">
        <ele>73</ele>
        <time>2022-04-02T17:08:45Z</time>
      </trkpt>
      <trkpt lat="48.7017" lon="-3.4908">
        <ele>74</ele>
        <time>2022-04-02T17:09:20Z</time>
      </trkpt>
      <trkpt lat="48.70133" lon="-3.49157">
        <ele>74</ele>
        <time>2022-04-02T17:09:31Z</time>
      </trkpt>
      <trkpt lat="48.70117" lon="-3.49214">
        <ele>75</ele>
        <time>2022-04-02T17:09:39Z</time>
      </trkpt>
      <trkpt lat="48.70111" lon="-3.49254">
        <ele>75</ele>
        <time>2022-04-02T17:09:43Z</time>
      </trkpt>
      <trkpt lat="48.70033" lon="-3.49485">
        <ele>81</ele>
        <time>2022-04-02T17:10:14Z</time>
      </trkpt>
      <trkpt lat="48.69972" lon="-3.49648">
        <ele>84</ele>
        <time>2022-04-02T17:10:36Z</time>
      </trkpt>
      <trkpt lat="48.69927" lon="-3.49841">
        <ele>84</ele>
        <time>2022-04-02T17:11:00Z</time>
      </trkpt>
      <trkpt lat="48.69899" lon="-3.50011">
        <ele>85</ele>
        <time>2022-04-02T17:11:20Z</time>
      </trkpt>
      <trkpt lat="48.69888" lon="-3.50048">
        <ele>84</ele>
        <time>2022-04-02T17:11:25Z</time>
      </trkpt>
      <trkpt lat="48.69848" lon="-3.50127">
        <ele>84</ele>
        <time>2022-04-02T17:11:37Z</time>
      </trkpt>
      <trkpt lat="48.69827" lon="-3.50218">
        <ele>84</ele>
        <time>2022-04-02T17:11:48Z</time>
      </trkpt>
      <trkpt lat="48.69771" lon="-3.50314">
        <ele>86</ele>
        <time>2022-04-02T17:12:03Z</time>
      </trkpt>
      <trkpt lat="48.69729" lon="-3.50396">
        <ele>88</ele>
        <time>2022-04-02T17:12:15Z</time>
      </trkpt>
      <trkpt lat="48.69704" lon="-3.50555">
        <ele>90</ele>
        <time>2022-04-02T17:12:35Z</time>
      </trkpt>
      <trkpt lat="48.69684" lon="-3.50638">
        <ele>89</ele>
        <time>2022-04-02T17:12:45Z</time>
      </trkpt>
      <trkpt lat="48.69662" lon="-3.50708">
        <ele>88</ele>
        <time>2022-04-02T17:12:54Z</time>
      </trkpt>
      <trkpt lat="48.6958" lon="-3.50821">
        <ele>89</ele>
        <time>2022-04-02T17:13:14Z</time>
      </trkpt>
      <trkpt lat="48.69487" lon="-3.50923">
        <ele>91</ele>
        <time>2022-04-02T17:13:34Z</time>
      </trkpt>
      <trkpt lat="48.69448" lon="-3.50958">
        <ele>91</ele>
        <time>2022-04-02T17:13:42Z</time>
      </trkpt>
      <trkpt lat="48.69396" lon="-3.51031">
        <ele>91</ele>
        <time>2022-04-02T17:13:55Z</time>
      </trkpt>
      <trkpt lat="48.69273" lon="-3.51223">
        <ele>95</ele>
        <time>2022-04-02T17:14:26Z</time>
      </trkpt>
      <trkpt lat="48.69154" lon="-3.51354">
        <ele>99</ele>
        <time>2022-04-02T17:14:53Z</time>
      </trkpt>
      <trkpt lat="48.69114" lon="-3.51392">
        <ele>101</ele>
        <time>2022-04-02T17:15:01Z</time>
      </trkpt>
      <trkpt lat="48.69074" lon="-3.51408">
        <ele>102</ele>
        <time>2022-04-02T17:15:08Z</time>
      </trkpt>
      <trkpt lat="48.68999" lon="-3.51424">
        <ele>105</ele>
        <time>2022-04-02T17:15:22Z</time>
      </trkpt>
      <trkpt lat="48.68983" lon="-3.5144">
        <ele>106</ele>
        <time>2022-04-02T17:15:25Z</time>
      </trkpt>
      <trkpt lat="48.68924" lon="-3.51628">
        <ele>110</ele>
        <time>2022-04-02T17:15:50Z</time>
      </trkpt>
      <trkpt lat="48.68906" lon="-3.51751">
        <ele>111</ele>
        <time>2022-04-02T17:16:04Z</time>
      </trkpt>
      <trkpt lat="48.68897" lon="-3.51832">
        <ele>112</ele>
        <time>2022-04-02T17:16:14Z</time>
      </trkpt>
      <trkpt lat="48.6888" lon="-3.51855">
        <ele>112</ele>
        <time>2022-04-02T17:16:18Z</time>
      </trkpt>
      <trkpt lat="48.68785" lon="-3.51894">
        <ele>112</ele>
        <time>2022-04-02T17:16:36Z</time>
      </trkpt>
      <trkpt lat="48.68693" lon="-3.51944">
        <ele>113</ele>
        <time>2022-04-02T17:16:53Z</time>
      </trkpt>
      <trkpt lat="48.68519" lon="-3.52032">
        <ele>112</ele>
        <time>2022-04-02T17:17:26Z</time>
      </trkpt>
      <trkpt lat="48.68424" lon="-3.52124">
        <ele>112</ele>
        <time>2022-04-02T17:17:46Z</time>
      </trkpt>
      <trkpt lat="48.68386" lon="-3.52149">
        <ele>112</ele>
        <time>2022-04-02T17:17:53Z</time>
      </trkpt>
      <trkpt lat="48.68294" lon="-3.52217">
        <ele>112</ele>
        <time>2022-04-02T17:18:11Z</time>
      </trkpt>
      <trkpt lat="48.68224" lon="-3.52277">
        <ele>112</ele>
        <time>2022-04-02T17:18:26Z</time>
      </trkpt>
      <trkpt lat="48.68226" lon="-3.52386">
        <ele>111</ele>
        <time>2022-04-02T17:18:38Z</time>
      </trkpt>
      <trkpt lat="48.68168" lon="-3.52619">
        <ele>107</ele>
        <time>2022-04-02T17:19:08Z</time>
      </trkpt>
      <trkpt lat="48.68122" lon="-3.52827">
        <ele>103</ele>
        <time>2022-04-02T17:19:33Z</time>
      </trkpt>
      <trkpt lat="48.68073" lon="-3.53031">
        <ele>100</ele>
        <time>2022-04-02T17:19:59Z</time>
      </trkpt>
      <trkpt lat="48.68045" lon="-3.53139">
        <ele>97</ele>
        <time>2022-04-02T17:20:13Z</time>
      </trkpt>
      <trkpt lat="48.68029" lon="-3.53181">
        <ele>96</ele>
        <time>2022-04-02T17:20:18Z</time>
      </trkpt>
      <trkpt lat="48.68005" lon="-3.53236">
        <ele>94</ele>
        <time>2022-04-02T17:20:26Z</time>
      </trkpt>
      <trkpt lat="48.6792" lon="-3.53326">
        <ele>91</ele>
        <time>2022-04-02T17:20:44Z</time>
      </trkpt>
      <trkpt lat="48.67855" lon="-3.53377">
        <ele>90</ele>
        <time>2022-04-02T17:20:58Z</time>
      </trkpt>
      <trkpt lat="48.67776" lon="-3.53454">
        <ele>88</ele>
        <time>2022-04-02T17:21:14Z</time>
      </trkpt>
      <trkpt lat="48.67739" lon="-3.53528">
        <ele>86</ele>
        <time>2022-04-02T17:21:25Z</time>
      </trkpt>
      <trkpt lat="48.67722" lon="-3.53598">
        <ele>82</ele>
        <time>2022-04-02T17:21:34Z</time>
      </trkpt>
      <trkpt lat="48.67716" lon="-3.53689">
        <ele>76</ele>
        <time>2022-04-02T17:21:45Z</time>
      </trkpt>
      <trkpt lat="48.67718" lon="-3.53822">
        <ele>75</ele>
        <time>2022-04-02T17:22:00Z</time>
      </trkpt>
      <trkpt lat="48.67716" lon="-3.54402">
        <ele>68</ele>
        <time>2022-04-02T17:23:08Z</time>
      </trkpt>
      <trkpt lat="48.67724" lon="-3.54448">
        <ele>67</ele>
        <time>2022-04-02T17:23:14Z</time>
      </trkpt>
      <trkpt lat="48.67743" lon="-3.54492">
        <ele>68</ele>
        <time>2022-04-02T17:23:20Z</time>
      </trkpt>
      <trkpt lat="48.6776" lon="-3.54505">
        <ele>68</ele>
        <time>2022-04-02T17:23:24Z</time>
      </trkpt>
      <trkpt lat="48.67781" lon="-3.54519">
        <ele>69</ele>
        <time>2022-04-02T17:23:28Z</time>
      </trkpt>
      <trkpt lat="48.67819" lon="-3.54514">
        <ele>71</ele>
        <time>2022-04-02T17:23:34Z</time>
      </trkpt>
      <trkpt lat="48.6786" lon="-3.5449">
        <ele>69</ele>
        <time>2022-04-02T17:23:42Z</time>
      </trkpt>
      <trkpt lat="48.67917" lon="-3.54422">
        <ele>64</ele>
        <time>2022-04-02T17:23:55Z</time>
      </trkpt>
      <trkpt lat="48.67975" lon="-3.54389">
        <ele>66</ele>
        <time>2022-04-02T17:24:06Z</time>
      </trkpt>
      <trkpt lat="48.68018" lon="-3.544">
        <ele>67</ele>
        <time>2022-04-02T17:24:14Z</time>
      </trkpt>
      <trkpt lat="48.68089" lon="-3.54472">
        <ele>63</ele>
        <time>2022-04-02T17:24:29Z</time>
      </trkpt>
      <trkpt lat="48.68184" lon="-3.54581">
        <ele>60</ele>
        <time>2022-04-02T17:24:50Z</time>
      </trkpt>
      <trkpt lat="48.68228" lon="-3.5465">
        <ele>62</ele>
        <time>2022-04-02T17:25:02Z</time>
      </trkpt>
      <trkpt lat="48.68252" lon="-3.54722">
        <ele>58</ele>
        <time>2022-04-02T17:25:11Z</time>
      </trkpt>
      <trkpt lat="48.68278" lon="-3.54841">
        <ele>59</ele>
        <time>2022-04-02T17:25:26Z</time>
      </trkpt>
      <trkpt lat="48.68299" lon="-3.54968">
        <ele>53</ele>
        <time>2022-04-02T17:25:41Z</time>
      </trkpt>
      <trkpt lat="48.68293" lon="-3.55042">
        <ele>51</ele>
        <time>2022-04-02T17:25:50Z</time>
      </trkpt>
      <trkpt lat="48.68243" lon="-3.55182">
        <ele>54</ele>
        <time>2022-04-02T17:26:09Z</time>
      </trkpt>
      <trkpt lat="48.68243" lon="-3.55241">
        <ele>55</ele>
        <time>2022-04-02T17:26:16Z</time>
      </trkpt>
      <trkpt lat="48.68259" lon="-3.55295">
        <ele>52</ele>
        <time>2022-04-02T17:26:23Z</time>
      </trkpt>
      <trkpt lat="48.68291" lon="-3.55332">
        <ele>50</ele>
        <time>2022-04-02T17:26:30Z</time>
      </trkpt>
      <trkpt lat="48.68321" lon="-3.55391">
        <ele>45</ele>
        <time>2022-04-02T17:26:38Z</time>
      </trkpt>
      <trkpt lat="48.68337" lon="-3.55469">
        <ele>40</ele>
        <time>2022-04-02T17:26:48Z</time>
      </trkpt>
      <trkpt lat="48.68333" lon="-3.55538">
        <ele>39</ele>
        <time>2022-04-02T17:26:56Z</time>
      </trkpt>
      <trkpt lat="48.68275" lon="-3.55733">
        <ele>36</ele>
        <time>2022-04-02T17:27:21Z</time>
      </trkpt>
      <trkpt lat="48.68265" lon="-3.55852">
        <ele>38</ele>
        <time>2022-04-02T17:27:35Z</time>
      </trkpt>
      <trkpt lat="48.68269" lon="-3.55882">
        <ele>37</ele>
        <time>2022-04-02T17:27:39Z</time>
      </trkpt>
      <trkpt lat="48.68287" lon="-3.55934">
        <ele>36</ele>
        <time>2022-04-02T17:27:46Z</time>
      </trkpt>
      <trkpt lat="48.68333" lon="-3.55995">
        <ele>27</ele>
        <time>2022-04-02T17:27:57Z</time>
      </trkpt>
      <trkpt lat="48.68409" lon="-3.56155">
        <ele>29</ele>
        <time>2022-04-02T17:28:20Z</time>
      </trkpt>
      <trkpt lat="48.68422" lon="-3.56175">
        <ele>28</ele>
        <time>2022-04-02T17:28:23Z</time>
      </trkpt>
      <trkpt lat="48.68419" lon="-3.56181">
        <ele>28</ele>
        <time>2022-04-02T17:28:24Z</time>
      </trkpt>
      <trkpt lat="48.68403" lon="-3.5616">
        <ele>30</ele>
        <time>2022-04-02T17:28:28Z</time>
      </trkpt>
      <trkpt lat="48.68401" lon="-3.56177">
        <ele>31</ele>
        <time>2022-04-02T17:28:30Z</time>
      </trkpt>
      <trkpt lat="48.68438" lon="-3.56315">
        <ele>30</ele>
        <time>2022-04-02T17:28:47Z</time>
      </trkpt>
      <trkpt lat="48.68444" lon="-3.56352">
        <ele>30</ele>
        <time>2022-04-02T17:28:52Z</time>
      </trkpt>
      <trkpt lat="48.68417" lon="-3.56558">
        <ele>30</ele>
        <time>2022-04-02T17:29:17Z</time>
      </trkpt>
      <trkpt lat="48.6841" lon="-3.56605">
        <ele>27</ele>
        <time>2022-04-02T17:29:22Z</time>
      </trkpt>
      <trkpt lat="48.68398" lon="-3.56629">
        <ele>25</ele>
        <time>2022-04-02T17:29:26Z</time>
      </trkpt>
      <trkpt lat="48.68355" lon="-3.56662">
        <ele>25</ele>
        <time>2022-04-02T17:29:34Z</time>
      </trkpt>
      <trkpt lat="48.68274" lon="-3.56678">
        <ele>29</ele>
        <time>2022-04-02T17:29:49Z</time>
      </trkpt>
      <trkpt lat="48.68226" lon="-3.56696">
        <ele>32</ele>
        <time>2022-04-02T17:29:58Z</time>
      </trkpt>
      <trkpt lat="48.68134" lon="-3.56773">
        <ele>25</ele>
        <time>2022-04-02T17:30:16Z</time>
      </trkpt>
      <trkpt lat="48.68081" lon="-3.56803">
        <ele>24</ele>
        <time>2022-04-02T17:30:26Z</time>
      </trkpt>
      <trkpt lat="48.6803" lon="-3.56821">
        <ele>28</ele>
        <time>2022-04-02T17:30:36Z</time>
      </trkpt>
      <trkpt lat="48.67948" lon="-3.56885">
        <ele>22</ele>
        <time>2022-04-02T17:30:52Z</time>
      </trkpt>
      <trkpt lat="48.6787" lon="-3.56926">
        <ele>19</ele>
        <time>2022-04-02T17:31:07Z</time>
      </trkpt>
      <trkpt lat="48.67809" lon="-3.56963">
        <ele>19</ele>
        <time>2022-04-02T17:31:19Z</time>
      </trkpt>
      <trkpt lat="48.67678" lon="-3.57098">
        <ele>13</ele>
        <time>2022-04-02T17:31:47Z</time>
      </trkpt>
      <trkpt lat="48.67635" lon="-3.57117">
        <ele>12</ele>
        <time>2022-04-02T17:31:55Z</time>
      </trkpt>
      <trkpt lat="48.6757" lon="-3.57131">
        <ele>12</ele>
        <time>2022-04-02T17:32:06Z</time>
      </trkpt>
      <trkpt lat="48.67544" lon="-3.5715">
        <ele>9</ele>
        <time>2022-04-02T17:32:12Z</time>
      </trkpt>
      <trkpt lat="48.67519" lon="-3.57186">
        <ele>7</ele>
        <time>2022-04-02T17:32:18Z</time>
      </trkpt>
      <trkpt lat="48.67509" lon="-3.57223">
        <ele>6</ele>
        <time>2022-04-02T17:32:22Z</time>
      </trkpt>
      <trkpt lat="48.67527" lon="-3.57251">
        <ele>5</ele>
        <time>2022-04-02T17:32:27Z</time>
      </trkpt>
      <trkpt lat="48.67487" lon="-3.57295">
        <ele>8</ele>
        <time>2022-04-02T17:32:36Z</time>
      </trkpt>
      <trkpt lat="48.67457" lon="-3.57361">
        <ele>13</ele>
        <time>2022-04-02T17:32:45Z</time>
      </trkpt>
      <trkpt lat="48.6745" lon="-3.57396">
        <ele>11</ele>
        <time>2022-04-02T17:32:49Z</time>
      </trkpt>
      <trkpt lat="48.67123" lon="-3.57922">
        <ele>3</ele>
        <time>2022-04-02T17:34:14Z</time>
      </trkpt>
      <trkpt lat="48.67057" lon="-3.58038">
        <ele>3</ele>
        <time>2022-04-02T17:34:32Z</time>
      </trkpt>
      <trkpt lat="48.67023" lon="-3.58226">
        <ele>4</ele>
        <time>2022-04-02T17:34:55Z</time>
      </trkpt>
      <trkpt lat="48.6705" lon="-3.58495">
        <ele>2</ele>
        <time>2022-04-02T17:35:27Z</time>
      </trkpt>
      <trkpt lat="48.67073" lon="-3.58668">
        <ele>6</ele>
        <time>2022-04-02T17:35:48Z</time>
      </trkpt>
      <trkpt lat="48.67147" lon="-3.58847">
        <ele>9</ele>
        <time>2022-04-02T17:36:13Z</time>
      </trkpt>
      <trkpt lat="48.67127" lon="-3.5898">
        <ele>12</ele>
        <time>2022-04-02T17:36:29Z</time>
      </trkpt>
      <trkpt lat="48.67053" lon="-3.59121">
        <ele>10</ele>
        <time>2022-04-02T17:36:50Z</time>
      </trkpt>
      <trkpt lat="48.6686" lon="-3.59546">
        <ele>11</ele>
        <time>2022-04-02T17:37:51Z</time>
      </trkpt>
      <trkpt lat="48.66866" lon="-3.59816">
        <ele>9</ele>
        <time>2022-04-02T17:38:22Z</time>
      </trkpt>
      <trkpt lat="48.66845" lon="-3.59849">
        <ele>9</ele>
        <time>2022-04-02T17:38:28Z</time>
      </trkpt>
      <trkpt lat="48.66818" lon="-3.60284">
        <ele>19</ele>
        <time>2022-04-02T17:39:19Z</time>
      </trkpt>
      <trkpt lat="48.66819" lon="-3.60385">
        <ele>25</ele>
        <time>2022-04-02T17:39:31Z</time>
      </trkpt>
      <trkpt lat="48.66832" lon="-3.60467">
        <ele>28</ele>
        <time>2022-04-02T17:39:41Z</time>
      </trkpt>
      <trkpt lat="48.66861" lon="-3.60531">
        <ele>27</ele>
        <time>2022-04-02T17:39:50Z</time>
      </trkpt>
      <trkpt lat="48.66878" lon="-3.60619">
        <ele>26</ele>
        <time>2022-04-02T17:40:01Z</time>
      </trkpt>
      <trkpt lat="48.6688" lon="-3.60732">
        <ele>27</ele>
        <time>2022-04-02T17:40:14Z</time>
      </trkpt>
      <trkpt lat="48.66903" lon="-3.6097">
        <ele>25</ele>
        <time>2022-04-02T17:40:42Z</time>
      </trkpt>
      <trkpt lat="48.66891" lon="-3.6118">
        <ele>34</ele>
        <time>2022-04-02T17:41:07Z</time>
      </trkpt>
      <trkpt lat="48.66911" lon="-3.61311">
        <ele>37</ele>
        <time>2022-04-02T17:41:23Z</time>
      </trkpt>
      <trkpt lat="48.6692" lon="-3.61412">
        <ele>38</ele>
        <time>2022-04-02T17:41:35Z</time>
      </trkpt>
      <trkpt lat="48.66909" lon="-3.61524">
        <ele>41</ele>
        <time>2022-04-02T17:41:48Z</time>
      </trkpt>
      <trkpt lat="48.66875" lon="-3.61668">
        <ele>46</ele>
        <time>2022-04-02T17:42:06Z</time>
      </trkpt>
      <trkpt lat="48.66881" lon="-3.61692">
        <ele>45</ele>
        <time>2022-04-02T17:42:09Z</time>
      </trkpt>
      <trkpt lat="48.66909" lon="-3.61699">
        <ele>45</ele>
        <time>2022-04-02T17:42:14Z</time>
      </trkpt>
      <trkpt lat="48.67086" lon="-3.61729">
        <ele>44</ele>
        <time>2022-04-02T17:42:46Z</time>
      </trkpt>
      <trkpt lat="48.67148" lon="-3.61732">
        <ele>45</ele>
        <time>2022-04-02T17:42:57Z</time>
      </trkpt>
      <trkpt lat="48.67312" lon="-3.617">
        <ele>42</ele>
        <time>2022-04-02T17:43:26Z</time>
      </trkpt>
      <trkpt lat="48.67396" lon="-3.61741">
        <ele>43</ele>
        <time>2022-04-02T17:43:42Z</time>
      </trkpt>
      <trkpt lat="48.6758" lon="-3.61889">
        <ele>44</ele>
        <time>2022-04-02T17:44:19Z</time>
      </trkpt>
      <trkpt lat="48.67669" lon="-3.61968">
        <ele>47</ele>
        <time>2022-04-02T17:44:37Z</time>
      </trkpt>
      <trkpt lat="48.67678" lon="-3.61996">
        <ele>47</ele>
        <time>2022-04-02T17:44:41Z</time>
      </trkpt>
      <trkpt lat="48.67729" lon="-3.62036">
        <ele>50</ele>
        <time>2022-04-02T17:44:51Z</time>
      </trkpt>
      <trkpt lat="48.67784" lon="-3.62046">
        <ele>53</ele>
        <time>2022-04-02T17:45:01Z</time>
      </trkpt>
      <trkpt lat="48.67825" lon="-3.62014">
        <ele>54</ele>
        <time>2022-04-02T17:45:09Z</time>
      </trkpt>
      <trkpt lat="48.67944" lon="-3.61988">
        <ele>59</ele>
        <time>2022-04-02T17:45:31Z</time>
      </trkpt>
      <trkpt lat="48.68056" lon="-3.61923">
        <ele>61</ele>
        <time>2022-04-02T17:45:52Z</time>
      </trkpt>
      <trkpt lat="48.68099" lon="-3.61966">
        <ele>61</ele>
        <time>2022-04-02T17:46:01Z</time>
      </trkpt>
      <trkpt lat="48.68111" lon="-3.62058">
        <ele>58</ele>
        <time>2022-04-02T17:46:12Z</time>
      </trkpt>
      <trkpt lat="48.68103" lon="-3.62168">
        <ele>57</ele>
        <time>2022-04-02T17:46:25Z</time>
      </trkpt>
      <trkpt lat="48.68133" lon="-3.62342">
        <ele>55</ele>
        <time>2022-04-02T17:46:46Z</time>
      </trkpt>
      <trkpt lat="48.68097" lon="-3.62694">
        <ele>43</ele>
        <time>2022-04-02T17:47:28Z</time>
      </trkpt>
      <trkpt lat="48.68077" lon="-3.62867">
        <ele>42</ele>
        <time>2022-04-02T17:47:49Z</time>
      </trkpt>
      <trkpt lat="48.6806" lon="-3.62929">
        <ele>43</ele>
        <time>2022-04-02T17:47:57Z</time>
      </trkpt>
      <trkpt lat="48.68051" lon="-3.63216">
        <ele>38</ele>
        <time>2022-04-02T17:48:31Z</time>
      </trkpt>
      <trkpt lat="48.68068" lon="-3.63447">
        <ele>31</ele>
        <time>2022-04-02T17:48:58Z</time>
      </trkpt>
      <trkpt lat="48.68073" lon="-3.63489">
        <ele>30</ele>
        <time>2022-04-02T17:49:03Z</time>
      </trkpt>
      <trkpt lat="48.6806" lon="-3.63561">
        <ele>27</ele>
        <time>2022-04-02T17:49:12Z</time>
      </trkpt>
      <trkpt lat="48.68004" lon="-3.63612">
        <ele>26</ele>
        <time>2022-04-02T17:49:23Z</time>
      </trkpt>
      <trkpt lat="48.67821" lon="-3.63665">
        <ele>26</ele>
        <time>2022-04-02T17:49:56Z</time>
      </trkpt>
      <trkpt lat="48.67696" lon="-3.63695">
        <ele>18</ele>
        <time>2022-04-02T17:50:19Z</time>
      </trkpt>
      <trkpt lat="48.67577" lon="-3.63656">
        <ele>15</ele>
        <time>2022-04-02T17:50:41Z</time>
      </trkpt>
      <trkpt lat="48.67468" lon="-3.63572">
        <ele>18</ele>
        <time>2022-04-02T17:51:02Z</time>
      </trkpt>
      <trkpt lat="48.6738" lon="-3.63497">
        <ele>20</ele>
        <time>2022-04-02T17:51:20Z</time>
      </trkpt>
      <trkpt lat="48.67237" lon="-3.63449">
        <ele>15</ele>
        <time>2022-04-02T17:51:46Z</time>
      </trkpt>
      <trkpt lat="48.67126" lon="-3.63461">
        <ele>10</ele>
        <time>2022-04-02T17:52:06Z</time>
      </trkpt>
      <trkpt lat="48.67092" lon="-3.63486">
        <ele>10</ele>
        <time>2022-04-02T17:52:13Z</time>
      </trkpt>
      <trkpt lat="48.67069" lon="-3.63634">
        <ele>9</ele>
        <time>2022-04-02T17:52:31Z</time>
      </trkpt>
      <trkpt lat="48.67004" lon="-3.63868">
        <ele>6</ele>
        <time>2022-04-02T17:53:01Z</time>
      </trkpt>
      <trkpt lat="48.66976" lon="-3.6405">
        <ele>3</ele>
        <time>2022-04-02T17:53:23Z</time>
      </trkpt>
      <trkpt lat="48.66962" lon="-3.64218">
        <ele>6</ele>
        <time>2022-04-02T17:53:42Z</time>
      </trkpt>
      <trkpt lat="48.66985" lon="-3.64332">
        <ele>4</ele>
        <time>2022-04-02T17:53:56Z</time>
      </trkpt>
      <trkpt lat="48.67076" lon="-3.6441">
        <ele>1.1</ele>
        <time>2022-04-02T17:54:15Z</time>
      </trkpt>
      <trkpt lat="48.67173" lon="-3.64488">
        <ele>9</ele>
        <time>2022-04-02T17:54:35Z</time>
      </trkpt>
      <trkpt lat="48.67215" lon="-3.645">
        <ele>15</ele>
        <time>2022-04-02T17:54:42Z</time>
      </trkpt>
      <trkpt lat="48.67218" lon="-3.64345">
        <ele>6</ele>
        <time>2022-04-02T17:55:00Z</time>
      </trkpt>
      <trkpt lat="48.67258" lon="-3.64163">
        <ele>6</ele>
        <time>2022-04-02T17:55:23Z</time>
      </trkpt>
      <trkpt lat="48.67272" lon="-3.64116">
        <ele>5</ele>
        <time>2022-04-02T17:55:29Z</time>
      </trkpt>
      <trkpt lat="48.67303" lon="-3.64093">
        <ele>6</ele>
        <time>2022-04-02T17:55:35Z</time>
      </trkpt>
      <trkpt lat="48.67331" lon="-3.64112">
        <ele>8</ele>
        <time>2022-04-02T17:55:41Z</time>
      </trkpt>
      <trkpt lat="48.67351" lon="-3.64098">
        <ele>8</ele>
        <time>2022-04-02T17:55:45Z</time>
      </trkpt>
      <trkpt lat="48.67399" lon="-3.64096">
        <ele>11</ele>
        <time>2022-04-02T17:55:53Z</time>
      </trkpt>
      <trkpt lat="48.67416" lon="-3.64076">
        <ele>11</ele>
        <time>2022-04-02T17:55:57Z</time>
      </trkpt>
      <trkpt lat="48.67456" lon="-3.64075">
        <ele>9</ele>
        <time>2022-04-02T17:56:04Z</time>
      </trkpt>
      <trkpt lat="48.67486" lon="-3.64135">
        <ele>11</ele>
        <time>2022-04-02T17:56:13Z</time>
      </trkpt>
      <trkpt lat="48.6752" lon="-3.64223">
        <ele>12</ele>
        <time>2022-04-02T17:56:25Z</time>
      </trkpt>
      <trkpt lat="48.67531" lon="-3.64238">
        <ele>11</ele>
        <time>2022-04-02T17:56:27Z</time>
      </trkpt>
      <trkpt lat="48.67585" lon="-3.64268">
        <ele>7</ele>
        <time>2022-04-02T17:56:38Z</time>
      </trkpt>
      <trkpt lat="48.67598" lon="-3.64295">
        <ele>8</ele>
        <time>2022-04-02T17:56:42Z</time>
      </trkpt>
      <trkpt lat="48.67599" lon="-3.64356">
        <ele>11</ele>
        <time>2022-04-02T17:56:49Z</time>
      </trkpt>
      <trkpt lat="48.67612" lon="-3.64408">
        <ele>9</ele>
        <time>2022-04-02T17:56:55Z</time>
      </trkpt>
      <trkpt lat="48.67638" lon="-3.64462">
        <ele>7</ele>
        <time>2022-04-02T17:57:03Z</time>
      </trkpt>
      <trkpt lat="48.67688" lon="-3.64538">
        <ele>7</ele>
        <time>2022-04-02T17:57:16Z</time>
      </trkpt>
      <trkpt lat="48.67742" lon="-3.64606">
        <ele>7</ele>
        <time>2022-04-02T17:57:28Z</time>
      </trkpt>
      <trkpt lat="48.67762" lon="-3.64636">
        <ele>7</ele>
        <time>2022-04-02T17:57:33Z</time>
      </trkpt>
      <trkpt lat="48.67753" lon="-3.64646">
        <ele>8</ele>
        <time>2022-04-02T17:57:35Z</time>
      </trkpt>
      <trkpt lat="48.677" lon="-3.64646">
        <ele>11</ele>
        <time>2022-04-02T17:57:45Z</time>
      </trkpt>
      <trkpt lat="48.67739" lon="-3.64725">
        <ele>12</ele>
        <time>2022-04-02T17:57:56Z</time>
      </trkpt>
      <trkpt lat="48.67832" lon="-3.64999">
        <ele>17</ele>
        <time>2022-04-02T17:58:32Z</time>
      </trkpt>
      <trkpt lat="48.67799" lon="-3.65049">
        <ele>20</ele>
        <time>2022-04-02T17:58:41Z</time>
      </trkpt>
      <trkpt lat="48.68091" lon="-3.65548">
        <ele>15</ele>
        <time>2022-04-02T17:59:59Z</time>
      </trkpt>
      <trkpt lat="48.68128" lon="-3.65587">
        <ele>19</ele>
        <time>2022-04-02T18:00:07Z</time>
      </trkpt>
      <trkpt lat="48.68161" lon="-3.65599">
        <ele>21</ele>
        <time>2022-04-02T18:00:13Z</time>
      </trkpt>
      <trkpt lat="48.68203" lon="-3.65589">
        <ele>25</ele>
        <time>2022-04-02T18:00:21Z</time>
      </trkpt>
      <trkpt lat="48.68307" lon="-3.65514">
        <ele>26</ele>
        <time>2022-04-02T18:00:41Z</time>
      </trkpt>
      <trkpt lat="48.68367" lon="-3.65489">
        <ele>26</ele>
        <time>2022-04-02T18:00:52Z</time>
      </trkpt>
      <trkpt lat="48.68431" lon="-3.65476">
        <ele>27</ele>
        <time>2022-04-02T18:01:04Z</time>
      </trkpt>
      <trkpt lat="48.68488" lon="-3.65458">
        <ele>26</ele>
        <time>2022-04-02T18:01:14Z</time>
      </trkpt>
      <trkpt lat="48.68541" lon="-3.65425">
        <ele>25</ele>
        <time>2022-04-02T18:01:24Z</time>
      </trkpt>
      <trkpt lat="48.68598" lon="-3.65384">
        <ele>25</ele>
        <time>2022-04-02T18:01:36Z</time>
      </trkpt>
      <trkpt lat="48.68655" lon="-3.65362">
        <ele>25</ele>
        <time>2022-04-02T18:01:46Z</time>
      </trkpt>
      <trkpt lat="48.68718" lon="-3.65353">
        <ele>23</ele>
        <time>2022-04-02T18:01:57Z</time>
      </trkpt>
      <trkpt lat="48.68761" lon="-3.65327">
        <ele>22</ele>
        <time>2022-04-02T18:02:06Z</time>
      </trkpt>
      <trkpt lat="48.68836" lon="-3.65188">
        <ele>19</ele>
        <time>2022-04-02T18:02:27Z</time>
      </trkpt>
      <trkpt lat="48.68881" lon="-3.65123">
        <ele>20</ele>
        <time>2022-04-02T18:02:38Z</time>
      </trkpt>
      <trkpt lat="48.69074" lon="-3.64867">
        <ele>15</ele>
        <time>2022-04-02T18:03:23Z</time>
      </trkpt>
      <trkpt lat="48.69109" lon="-3.64836">
        <ele>14</ele>
        <time>2022-04-02T18:03:31Z</time>
      </trkpt>
      <trkpt lat="48.69097" lon="-3.64762">
        <ele>10</ele>
        <time>2022-04-02T18:03:40Z</time>
      </trkpt>
      <trkpt lat="48.69101" lon="-3.64723">
        <ele>8</ele>
        <time>2022-04-02T18:03:44Z</time>
      </trkpt>
      <trkpt lat="48.69126" lon="-3.64682">
        <ele>6</ele>
        <time>2022-04-02T18:03:51Z</time>
      </trkpt>
      <trkpt lat="48.6918" lon="-3.64614">
        <ele>10</ele>
        <time>2022-04-02T18:04:03Z</time>
      </trkpt>
      <trkpt lat="48.69195" lon="-3.64563">
        <ele>10</ele>
        <time>2022-04-02T18:04:10Z</time>
      </trkpt>
      <trkpt lat="48.69232" lon="-3.64547">
        <ele>10</ele>
        <time>2022-04-02T18:04:17Z</time>
      </trkpt>
      <trkpt lat="48.69272" lon="-3.64613">
        <ele>12</ele>
        <time>2022-04-02T18:04:27Z</time>
      </trkpt>
      <trkpt lat="48.69276" lon="-3.64648">
        <ele>11</ele>
        <time>2022-04-02T18:04:31Z</time>
      </trkpt>
      <trkpt lat="48.69323" lon="-3.64692">
        <ele>11</ele>
        <time>2022-04-02T18:04:41Z</time>
      </trkpt>
      <trkpt lat="48.69346" lon="-3.64738">
        <ele>9</ele>
        <time>2022-04-02T18:04:48Z</time>
      </trkpt>
      <trkpt lat="48.69352" lon="-3.64788">
        <ele>8</ele>
        <time>2022-04-02T18:04:54Z</time>
      </trkpt>
      <trkpt lat="48.69342" lon="-3.64812">
        <ele>8</ele>
        <time>2022-04-02T18:04:57Z</time>
      </trkpt>
      <trkpt lat="48.69336" lon="-3.64847">
        <ele>9</ele>
        <time>2022-04-02T18:05:01Z</time>
      </trkpt>
      <trkpt lat="48.69317" lon="-3.64862">
        <ele>10</ele>
        <time>2022-04-02T18:05:05Z</time>
      </trkpt>
      <trkpt lat="48.69324" lon="-3.64924">
        <ele>10</ele>
        <time>2022-04-02T18:05:13Z</time>
      </trkpt>
      <trkpt lat="48.69311" lon="-3.65009">
        <ele>13</ele>
        <time>2022-04-02T18:05:23Z</time>
      </trkpt>
      <trkpt lat="48.69309" lon="-3.65113">
        <ele>19</ele>
        <time>2022-04-02T18:05:35Z</time>
      </trkpt>
      <trkpt lat="48.69321" lon="-3.65201">
        <ele>21</ele>
        <time>2022-04-02T18:05:46Z</time>
      </trkpt>
      <trkpt lat="48.69299" lon="-3.65318">
        <ele>28</ele>
        <time>2022-04-02T18:06:00Z</time>
      </trkpt>
      <trkpt lat="48.69268" lon="-3.65373">
        <ele>33</ele>
        <time>2022-04-02T18:06:08Z</time>
      </trkpt>
      <trkpt lat="48.69268" lon="-3.65425">
        <ele>35</ele>
        <time>2022-04-02T18:06:15Z</time>
      </trkpt>
      <trkpt lat="48.6933" lon="-3.65458">
        <ele>32</ele>
        <time>2022-04-02T18:06:26Z</time>
      </trkpt>
      <trkpt lat="48.69342" lon="-3.65503">
        <ele>35</ele>
        <time>2022-04-02T18:06:32Z</time>
      </trkpt>
      <trkpt lat="48.69422" lon="-3.65486">
        <ele>31</ele>
        <time>2022-04-02T18:06:46Z</time>
      </trkpt>
      <trkpt lat="48.69451" lon="-3.65574">
        <ele>43</ele>
        <time>2022-04-02T18:06:58Z</time>
      </trkpt>
      <trkpt lat="48.69447" lon="-3.65587">
        <ele>45</ele>
        <time>2022-04-02T18:07:00Z</time>
      </trkpt>
      <trkpt lat="48.69381" lon="-3.65601">
        <ele>43</ele>
        <time>2022-04-02T18:07:11Z</time>
      </trkpt>
      <trkpt lat="48.69376" lon="-3.65609">
        <ele>43</ele>
        <time>2022-04-02T18:07:13Z</time>
      </trkpt>
      <trkpt lat="48.69373" lon="-3.65627">
        <ele>43</ele>
        <time>2022-04-02T18:07:15Z</time>
      </trkpt>
      <trkpt lat="48.69379" lon="-3.65719">
        <ele>47</ele>
        <time>2022-04-02T18:07:26Z</time>
      </trkpt>
      <trkpt lat="48.69401" lon="-3.65781">
        <ele>49</ele>
        <time>2022-04-02T18:07:34Z</time>
      </trkpt>
      <trkpt lat="48.69398" lon="-3.658">
        <ele>49</ele>
        <time>2022-04-02T18:07:36Z</time>
      </trkpt>
      <trkpt lat="48.69359" lon="-3.65853">
        <ele>46</ele>
        <time>2022-04-02T18:07:46Z</time>
      </trkpt>
      <trkpt lat="48.69306" lon="-3.65901">
        <ele>44</ele>
        <time>2022-04-02T18:07:57Z</time>
      </trkpt>
      <trkpt lat="48.69226" lon="-3.65993">
        <ele>40</ele>
        <time>2022-04-02T18:08:15Z</time>
      </trkpt>
      <trkpt lat="48.69103" lon="-3.66128">
        <ele>41</ele>
        <time>2022-04-02T18:08:42Z</time>
      </trkpt>
      <trkpt lat="48.69087" lon="-3.66176">
        <ele>42</ele>
        <time>2022-04-02T18:08:48Z</time>
      </trkpt>
      <trkpt lat="48.69066" lon="-3.6631">
        <ele>40</ele>
        <time>2022-04-02T18:09:04Z</time>
      </trkpt>
      <trkpt lat="48.69051" lon="-3.66381">
        <ele>36</ele>
        <time>2022-04-02T18:09:13Z</time>
      </trkpt>
      <trkpt lat="48.68974" lon="-3.66519">
        <ele>39</ele>
        <time>2022-04-02T18:09:34Z</time>
      </trkpt>
      <trkpt lat="48.689" lon="-3.66643">
        <ele>46</ele>
        <time>2022-04-02T18:09:54Z</time>
      </trkpt>
      <trkpt lat="48.68855" lon="-3.66705">
        <ele>51</ele>
        <time>2022-04-02T18:10:04Z</time>
      </trkpt>
      <trkpt lat="48.68787" lon="-3.66743">
        <ele>50</ele>
        <time>2022-04-02T18:10:17Z</time>
      </trkpt>
      <trkpt lat="48.68749" lon="-3.66746">
        <ele>48</ele>
        <time>2022-04-02T18:10:24Z</time>
      </trkpt>
      <trkpt lat="48.6869" lon="-3.66736">
        <ele>42</ele>
        <time>2022-04-02T18:10:35Z</time>
      </trkpt>
      <trkpt lat="48.68652" lon="-3.66784">
        <ele>39</ele>
        <time>2022-04-02T18:10:43Z</time>
      </trkpt>
      <trkpt lat="48.68636" lon="-3.66825">
        <ele>38</ele>
        <time>2022-04-02T18:10:49Z</time>
      </trkpt>
      <trkpt lat="48.68623" lon="-3.66898">
        <ele>34</ele>
        <time>2022-04-02T18:10:58Z</time>
      </trkpt>
      <trkpt lat="48.68607" lon="-3.67067">
        <ele>26</ele>
        <time>2022-04-02T18:11:18Z</time>
      </trkpt>
      <trkpt lat="48.68603" lon="-3.67145">
        <ele>22</ele>
        <time>2022-04-02T18:11:27Z</time>
      </trkpt>
      <trkpt lat="48.68607" lon="-3.67187">
        <ele>21</ele>
        <time>2022-04-02T18:11:32Z</time>
      </trkpt>
      <trkpt lat="48.68678" lon="-3.67375">
        <ele>16</ele>
        <time>2022-04-02T18:11:58Z</time>
      </trkpt>
      <trkpt lat="48.68687" lon="-3.67419">
        <ele>14</ele>
        <time>2022-04-02T18:12:03Z</time>
      </trkpt>
      <trkpt lat="48.68686" lon="-3.67478">
        <ele>11</ele>
        <time>2022-04-02T18:12:10Z</time>
      </trkpt>
      <trkpt lat="48.68666" lon="-3.67575">
        <ele>8</ele>
        <time>2022-04-02T18:12:22Z</time>
      </trkpt>
      <trkpt lat="48.68644" lon="-3.6762">
        <ele>7</ele>
        <time>2022-04-02T18:12:28Z</time>
      </trkpt>
      <trkpt lat="48.68592" lon="-3.67679">
        <ele>8</ele>
        <time>2022-04-02T18:12:40Z</time>
      </trkpt>
      <trkpt lat="48.68618" lon="-3.67762">
        <ele>8</ele>
        <time>2022-04-02T18:12:51Z</time>
      </trkpt>
      <trkpt lat="48.68624" lon="-3.67793">
        <ele>8</ele>
        <time>2022-04-02T18:12:55Z</time>
      </trkpt>
      <trkpt lat="48.68637" lon="-3.67958">
        <ele>12</ele>
        <time>2022-04-02T18:13:14Z</time>
      </trkpt>
      <trkpt lat="48.68633" lon="-3.6804">
        <ele>17</ele>
        <time>2022-04-02T18:13:24Z</time>
      </trkpt>
      <trkpt lat="48.68637" lon="-3.68075">
        <ele>18</ele>
        <time>2022-04-02T18:13:28Z</time>
      </trkpt>
      <trkpt lat="48.68684" lon="-3.68234">
        <ele>24</ele>
        <time>2022-04-02T18:13:48Z</time>
      </trkpt>
      <trkpt lat="48.687" lon="-3.6832">
        <ele>26</ele>
        <time>2022-04-02T18:13:59Z</time>
      </trkpt>
      <trkpt lat="48.68732" lon="-3.68571">
        <ele>36</ele>
        <time>2022-04-02T18:14:29Z</time>
      </trkpt>
      <trkpt lat="48.68745" lon="-3.68633">
        <ele>40</ele>
        <time>2022-04-02T18:14:37Z</time>
      </trkpt>
      <trkpt lat="48.68773" lon="-3.68661">
        <ele>43</ele>
        <time>2022-04-02T18:14:43Z</time>
      </trkpt>
      <trkpt lat="48.6891" lon="-3.68674">
        <ele>43</ele>
        <time>2022-04-02T18:15:07Z</time>
      </trkpt>
      <trkpt lat="48.68937" lon="-3.68729">
        <ele>46</ele>
        <time>2022-04-02T18:15:15Z</time>
      </trkpt>
      <trkpt lat="48.68975" lon="-3.68819">
        <ele>50</ele>
        <time>2022-04-02T18:15:28Z</time>
      </trkpt>
      <trkpt lat="48.6901" lon="-3.68836">
        <ele>45</ele>
        <time>2022-04-02T18:15:34Z</time>
      </trkpt>
      <trkpt lat="48.69049" lon="-3.68837">
        <ele>38</ele>
        <time>2022-04-02T18:15:41Z</time>
      </trkpt>
      <trkpt lat="48.69075" lon="-3.68856">
        <ele>36</ele>
        <time>2022-04-02T18:15:46Z</time>
      </trkpt>
      <trkpt lat="48.69091" lon="-3.68896">
        <ele>37</ele>
        <time>2022-04-02T18:15:52Z</time>
      </trkpt>
      <trkpt lat="48.691" lon="-3.68946">
        <ele>34</ele>
        <time>2022-04-02T18:15:58Z</time>
      </trkpt>
      <trkpt lat="48.69044" lon="-3.69131">
        <ele>35</ele>
        <time>2022-04-02T18:16:22Z</time>
      </trkpt>
      <trkpt lat="48.68997" lon="-3.69308">
        <ele>39</ele>
        <time>2022-04-02T18:16:44Z</time>
      </trkpt>
      <trkpt lat="48.69" lon="-3.69366">
        <ele>37</ele>
        <time>2022-04-02T18:16:51Z</time>
      </trkpt>
      <trkpt lat="48.69019" lon="-3.69422">
        <ele>30</ele>
        <time>2022-04-02T18:16:58Z</time>
      </trkpt>
      <trkpt lat="48.69037" lon="-3.695">
        <ele>29</ele>
        <time>2022-04-02T18:17:08Z</time>
      </trkpt>
      <trkpt lat="48.69036" lon="-3.69567">
        <ele>28</ele>
        <time>2022-04-02T18:17:16Z</time>
      </trkpt>
      <trkpt lat="48.6896" lon="-3.69753">
        <ele>29</ele>
        <time>2022-04-02T18:17:42Z</time>
      </trkpt>
      <trkpt lat="48.68935" lon="-3.69831">
        <ele>30</ele>
        <time>2022-04-02T18:17:52Z</time>
      </trkpt>
      <trkpt lat="48.68907" lon="-3.69996">
        <ele>26</ele>
        <time>2022-04-02T18:18:12Z</time>
      </trkpt>
      <trkpt lat="48.68905" lon="-3.70022">
        <ele>27</ele>
        <time>2022-04-02T18:18:15Z</time>
      </trkpt>
      <trkpt lat="48.68842" lon="-3.70037">
        <ele>35</ele>
        <time>2022-04-02T18:18:26Z</time>
      </trkpt>
      <trkpt lat="48.68684" lon="-3.7013">
        <ele>54</ele>
        <time>2022-04-02T18:18:56Z</time>
      </trkpt>
      <trkpt lat="48.68622" lon="-3.70147">
        <ele>57</ele>
        <time>2022-04-02T18:19:08Z</time>
      </trkpt>
      <trkpt lat="48.68511" lon="-3.70206">
        <ele>63</ele>
        <time>2022-04-02T18:19:29Z</time>
      </trkpt>
      <trkpt lat="48.68455" lon="-3.70232">
        <ele>64</ele>
        <time>2022-04-02T18:19:39Z</time>
      </trkpt>
      <trkpt lat="48.68389" lon="-3.70246">
        <ele>65</ele>
        <time>2022-04-02T18:19:51Z</time>
      </trkpt>
      <trkpt lat="48.68294" lon="-3.70306">
        <ele>69</ele>
        <time>2022-04-02T18:20:09Z</time>
      </trkpt>
      <trkpt lat="48.6816" lon="-3.70479">
        <ele>75</ele>
        <time>2022-04-02T18:20:40Z</time>
      </trkpt>
      <trkpt lat="48.68065" lon="-3.70642">
        <ele>79</ele>
        <time>2022-04-02T18:21:06Z</time>
      </trkpt>
      <trkpt lat="48.68038" lon="-3.70825">
        <ele>82</ele>
        <time>2022-04-02T18:21:28Z</time>
      </trkpt>
      <trkpt lat="48.67981" lon="-3.7098">
        <ele>87</ele>
        <time>2022-04-02T18:21:49Z</time>
      </trkpt>
      <trkpt lat="48.68027" lon="-3.71065">
        <ele>88</ele>
        <time>2022-04-02T18:22:02Z</time>
      </trkpt>
      <trkpt lat="48.68128" lon="-3.71153">
        <ele>89</ele>
        <time>2022-04-02T18:22:23Z</time>
      </trkpt>
      <trkpt lat="48.68183" lon="-3.71288">
        <ele>93</ele>
        <time>2022-04-02T18:22:41Z</time>
      </trkpt>
      <trkpt lat="48.68321" lon="-3.71508">
        <ele>98</ele>
        <time>2022-04-02T18:23:17Z</time>
      </trkpt>
      <trkpt lat="48.68439" lon="-3.71614">
        <ele>99</ele>
        <time>2022-04-02T18:23:41Z</time>
      </trkpt>
      <trkpt lat="48.68628" lon="-3.71861">
        <ele>99</ele>
        <time>2022-04-02T18:24:26Z</time>
      </trkpt>
      <trkpt lat="48.68753" lon="-3.7191">
        <ele>98</ele>
        <time>2022-04-02T18:24:49Z</time>
      </trkpt>
      <trkpt lat="48.68847" lon="-3.71999">
        <ele>97</ele>
        <time>2022-04-02T18:25:08Z</time>
      </trkpt>
      <trkpt lat="48.68994" lon="-3.72055">
        <ele>97</ele>
        <time>2022-04-02T18:25:35Z</time>
      </trkpt>
      <trkpt lat="48.69139" lon="-3.72144">
        <ele>93</ele>
        <time>2022-04-02T18:26:03Z</time>
      </trkpt>
      <trkpt lat="48.693" lon="-3.72268">
        <ele>89</ele>
        <time>2022-04-02T18:26:35Z</time>
      </trkpt>
      <trkpt lat="48.69469" lon="-3.72364">
        <ele>85</ele>
        <time>2022-04-02T18:27:07Z</time>
      </trkpt>
      <trkpt lat="48.6964" lon="-3.72439">
        <ele>79</ele>
        <time>2022-04-02T18:27:39Z</time>
      </trkpt>
      <trkpt lat="48.69772" lon="-3.72577">
        <ele>73</ele>
        <time>2022-04-02T18:28:08Z</time>
      </trkpt>
      <trkpt lat="48.69869" lon="-3.72615">
        <ele>71</ele>
        <time>2022-04-02T18:28:25Z</time>
      </trkpt>
      <trkpt lat="48.69956" lon="-3.72692">
        <ele>78</ele>
        <time>2022-04-02T18:28:43Z</time>
      </trkpt>
      <trkpt lat="48.7003" lon="-3.72843">
        <ele>83</ele>
        <time>2022-04-02T18:29:05Z</time>
      </trkpt>
      <trkpt lat="48.70049" lon="-3.72926">
        <ele>83</ele>
        <time>2022-04-02T18:29:16Z</time>
      </trkpt>
      <trkpt lat="48.70043" lon="-3.72966">
        <ele>84</ele>
        <time>2022-04-02T18:29:21Z</time>
      </trkpt>
      <trkpt lat="48.70018" lon="-3.73021">
        <ele>84</ele>
        <time>2022-04-02T18:29:28Z</time>
      </trkpt>
      <trkpt lat="48.70034" lon="-3.73289">
        <ele>84</ele>
        <time>2022-04-02T18:30:00Z</time>
      </trkpt>
      <trkpt lat="48.7008" lon="-3.73327">
        <ele>85</ele>
        <time>2022-04-02T18:30:09Z</time>
      </trkpt>
      <trkpt lat="48.70086" lon="-3.73399">
        <ele>85</ele>
        <time>2022-04-02T18:30:18Z</time>
      </trkpt>
      <trkpt lat="48.70096" lon="-3.73467">
        <ele>85</ele>
        <time>2022-04-02T18:30:26Z</time>
      </trkpt>
      <trkpt lat="48.7009" lon="-3.73557">
        <ele>84</ele>
        <time>2022-04-02T18:30:37Z</time>
      </trkpt>
      <trkpt lat="48.70083" lon="-3.73606">
        <ele>84</ele>
        <time>2022-04-02T18:30:43Z</time>
      </trkpt>
      <trkpt lat="48.70061" lon="-3.73686">
        <ele>83</ele>
        <time>2022-04-02T18:30:53Z</time>
      </trkpt>
      <trkpt lat="48.70049" lon="-3.73781">
        <ele>83</ele>
        <time>2022-04-02T18:31:04Z</time>
      </trkpt>
      <trkpt lat="48.70068" lon="-3.73971">
        <ele>83</ele>
        <time>2022-04-02T18:31:27Z</time>
      </trkpt>
      <trkpt lat="48.70116" lon="-3.73999">
        <ele>83</ele>
        <time>2022-04-02T18:31:36Z</time>
      </trkpt>
      <trkpt lat="48.70257" lon="-3.74012">
        <ele>82</ele>
        <time>2022-04-02T18:32:01Z</time>
      </trkpt>
      <trkpt lat="48.70338" lon="-3.73998">
        <ele>80</ele>
        <time>2022-04-02T18:32:15Z</time>
      </trkpt>
      <trkpt lat="48.70375" lon="-3.74031">
        <ele>77</ele>
        <time>2022-04-02T18:32:23Z</time>
      </trkpt>
      <trkpt lat="48.70322" lon="-3.74524">
        <ele>83</ele>
        <time>2022-04-02T18:33:22Z</time>
      </trkpt>
      <trkpt lat="48.70359" lon="-3.74571">
        <ele>82</ele>
        <time>2022-04-02T18:33:30Z</time>
      </trkpt>
      <trkpt lat="48.70359" lon="-3.74636">
        <ele>83</ele>
        <time>2022-04-02T18:33:38Z</time>
      </trkpt>
      <trkpt lat="48.70343" lon="-3.74695">
        <ele>83</ele>
        <time>2022-04-02T18:33:45Z</time>
      </trkpt>
      <trkpt lat="48.70413" lon="-3.75098">
        <ele>78</ele>
        <time>2022-04-02T18:34:34Z</time>
      </trkpt>
      <trkpt lat="48.70504" lon="-3.75112">
        <ele>71</ele>
        <time>2022-04-02T18:34:51Z</time>
      </trkpt>
      <trkpt lat="48.70551" lon="-3.75155">
        <ele>64</ele>
        <time>2022-04-02T18:35:00Z</time>
      </trkpt>
      <trkpt lat="48.70621" lon="-3.75106">
        <ele>54</ele>
        <time>2022-04-02T18:35:14Z</time>
      </trkpt>
      <trkpt lat="48.70669" lon="-3.75205">
        <ele>57</ele>
        <time>2022-04-02T18:35:29Z</time>
      </trkpt>
      <trkpt lat="48.70742" lon="-3.75275">
        <ele>54</ele>
        <time>2022-04-02T18:35:44Z</time>
      </trkpt>
      <trkpt lat="48.70768" lon="-3.7532">
        <ele>54</ele>
        <time>2022-04-02T18:35:51Z</time>
      </trkpt>
      <trkpt lat="48.70801" lon="-3.75551">
        <ele>46</ele>
        <time>2022-04-02T18:36:19Z</time>
      </trkpt>
      <trkpt lat="48.70812" lon="-3.75733">
        <ele>49</ele>
        <time>2022-04-02T18:36:40Z</time>
      </trkpt>
      <trkpt lat="48.708" lon="-3.75819">
        <ele>55</ele>
        <time>2022-04-02T18:36:50Z</time>
      </trkpt>
      <trkpt lat="48.70759" lon="-3.75886">
        <ele>56</ele>
        <time>2022-04-02T18:37:01Z</time>
      </trkpt>
      <trkpt lat="48.70649" lon="-3.75945">
        <ele>63</ele>
        <time>2022-04-02T18:37:22Z</time>
      </trkpt>
      <trkpt lat="48.70616" lon="-3.76013">
        <ele>62</ele>
        <time>2022-04-02T18:37:32Z</time>
      </trkpt>
      <trkpt lat="48.7063" lon="-3.76096">
        <ele>65</ele>
        <time>2022-04-02T18:37:42Z</time>
      </trkpt>
      <trkpt lat="48.70748" lon="-3.76211">
        <ele>67</ele>
        <time>2022-04-02T18:38:07Z</time>
      </trkpt>
      <trkpt lat="48.70792" lon="-3.76366">
        <ele>57</ele>
        <time>2022-04-02T18:38:27Z</time>
      </trkpt>
      <trkpt lat="48.70805" lon="-3.76464">
        <ele>52</ele>
        <time>2022-04-02T18:38:38Z</time>
      </trkpt>
      <trkpt lat="48.70791" lon="-3.76523">
        <ele>47</ele>
        <time>2022-04-02T18:38:46Z</time>
      </trkpt>
      <trkpt lat="48.7075" lon="-3.76587">
        <ele>42</ele>
        <time>2022-04-02T18:38:56Z</time>
      </trkpt>
      <trkpt lat="48.70679" lon="-3.76653">
        <ele>39</ele>
        <time>2022-04-02T18:39:11Z</time>
      </trkpt>
      <trkpt lat="48.70663" lon="-3.7675">
        <ele>39</ele>
        <time>2022-04-02T18:39:23Z</time>
      </trkpt>
      <trkpt lat="48.7067" lon="-3.76843">
        <ele>39</ele>
        <time>2022-04-02T18:39:34Z</time>
      </trkpt>
      <trkpt lat="48.70509" lon="-3.77345">
        <ele>32</ele>
        <time>2022-04-02T18:40:39Z</time>
      </trkpt>
      <trkpt lat="48.70368" lon="-3.77504">
        <ele>13</ele>
        <time>2022-04-02T18:41:11Z</time>
      </trkpt>
      <trkpt lat="48.70259" lon="-3.77617">
        <ele>8</ele>
        <time>2022-04-02T18:41:34Z</time>
      </trkpt>
      <trkpt lat="48.70217" lon="-3.77731">
        <ele>4</ele>
        <time>2022-04-02T18:41:49Z</time>
      </trkpt>
      <trkpt lat="48.7013" lon="-3.78142">
        <ele>4</ele>
        <time>2022-04-02T18:42:40Z</time>
      </trkpt>
      <trkpt lat="48.70019" lon="-3.7871">
        <ele>50</ele>
        <time>2022-04-02T18:43:50Z</time>
      </trkpt>
      <trkpt lat="48.6998" lon="-3.78798">
        <ele>59</ele>
        <time>2022-04-02T18:44:02Z</time>
      </trkpt>
      <trkpt lat="48.69968" lon="-3.78896">
        <ele>65</ele>
        <time>2022-04-02T18:44:14Z</time>
      </trkpt>
      <trkpt lat="48.69928" lon="-3.78944">
        <ele>67</ele>
        <time>2022-04-02T18:44:23Z</time>
      </trkpt>
      <trkpt lat="48.6996" lon="-3.78929">
        <ele>66</ele>
        <time>2022-04-02T18:44:29Z</time>
      </trkpt>
      <trkpt lat="48.70044" lon="-3.79137">
        <ele>72</ele>
        <time>2022-04-02T18:44:58Z</time>
      </trkpt>
      <trkpt lat="48.70096" lon="-3.79179">
        <ele>72</ele>
        <time>2022-04-02T18:45:08Z</time>
      </trkpt>
      <trkpt lat="48.70094" lon="-3.79234">
        <ele>73</ele>
        <time>2022-04-02T18:45:15Z</time>
      </trkpt>
      <trkpt lat="48.70184" lon="-3.79429">
        <ele>77</ele>
        <time>2022-04-02T18:45:42Z</time>
      </trkpt>
      <trkpt lat="48.70182" lon="-3.7959">
        <ele>78</ele>
        <time>2022-04-02T18:46:01Z</time>
      </trkpt>
      <trkpt lat="48.70238" lon="-3.79864">
        <ele>66</ele>
        <time>2022-04-02T18:46:35Z</time>
      </trkpt>
      <trkpt lat="48.70302" lon="-3.8002">
        <ele>65</ele>
        <time>2022-04-02T18:46:57Z</time>
      </trkpt>
      <trkpt lat="48.70298" lon="-3.80038">
        <ele>65</ele>
        <time>2022-04-02T18:46:59Z</time>
      </trkpt>
      <trkpt lat="48.70343" lon="-3.80045">
        <ele>66</ele>
        <time>2022-04-02T18:47:07Z</time>
      </trkpt>
      <trkpt lat="48.70452" lon="-3.79949">
        <ele>62</ele>
        <time>2022-04-02T18:47:29Z</time>
      </trkpt>
      <trkpt lat="48.70548" lon="-3.80128">
        <ele>64</ele>
        <time>2022-04-02T18:47:56Z</time>
      </trkpt>
      <trkpt lat="48.7061" lon="-3.80207">
        <ele>62</ele>
        <time>2022-04-02T18:48:11Z</time>
      </trkpt>
      <trkpt lat="48.70697" lon="-3.80346">
        <ele>63</ele>
        <time>2022-04-02T18:48:33Z</time>
      </trkpt>
      <trkpt lat="48.70798" lon="-3.8038">
        <ele>57</ele>
        <time>2022-04-02T18:48:52Z</time>
      </trkpt>
      <trkpt lat="48.70872" lon="-3.80313">
        <ele>47</ele>
        <time>2022-04-02T18:49:07Z</time>
      </trkpt>
      <trkpt lat="48.70946" lon="-3.80276">
        <ele>41</ele>
        <time>2022-04-02T18:49:21Z</time>
      </trkpt>
      <trkpt lat="48.70995" lon="-3.8027">
        <ele>38</ele>
        <time>2022-04-02T18:49:30Z</time>
      </trkpt>
      <trkpt lat="48.71014" lon="-3.80292">
        <ele>35</ele>
        <time>2022-04-02T18:49:34Z</time>
      </trkpt>
      <trkpt lat="48.71036" lon="-3.80292">
        <ele>32</ele>
        <time>2022-04-02T18:49:38Z</time>
      </trkpt>
      <trkpt lat="48.71062" lon="-3.80275">
        <ele>29</ele>
        <time>2022-04-02T18:49:43Z</time>
      </trkpt>
      <trkpt lat="48.71049" lon="-3.80455">
        <ele>22</ele>
        <time>2022-04-02T18:50:04Z</time>
      </trkpt>
      <trkpt lat="48.71054" lon="-3.805">
        <ele>18</ele>
        <time>2022-04-02T18:50:10Z</time>
      </trkpt>
      <trkpt lat="48.71078" lon="-3.8054">
        <ele>11</ele>
        <time>2022-04-02T18:50:16Z</time>
      </trkpt>
      <trkpt lat="48.71101" lon="-3.8059">
        <ele>7</ele>
        <time>2022-04-02T18:50:23Z</time>
      </trkpt>
      <trkpt lat="48.71184" lon="-3.8093">
        <ele>3</ele>
        <time>2022-04-02T18:51:06Z</time>
      </trkpt>
      <trkpt lat="48.71304" lon="-3.81269">
        <ele>6</ele>
        <time>2022-04-02T18:51:51Z</time>
      </trkpt>
      <trkpt lat="48.71304" lon="-3.81292">
        <ele>7</ele>
        <time>2022-04-02T18:51:53Z</time>
      </trkpt>
      <trkpt lat="48.71259" lon="-3.8137">
        <ele>9</ele>
        <time>2022-04-02T18:52:06Z</time>
      </trkpt>
      <trkpt lat="48.71236" lon="-3.81448">
        <ele>9</ele>
        <time>2022-04-02T18:52:16Z</time>
      </trkpt>
      <trkpt lat="48.71202" lon="-3.81623">
        <ele>7</ele>
        <time>2022-04-02T18:52:37Z</time>
      </trkpt>
      <trkpt lat="48.71175" lon="-3.81668">
        <ele>5</ele>
        <time>2022-04-02T18:52:44Z</time>
      </trkpt>
      <trkpt lat="48.71096" lon="-3.81702">
        <ele>8</ele>
        <time>2022-04-02T18:52:59Z</time>
      </trkpt>
      <trkpt lat="48.71015" lon="-3.81854">
        <ele>6</ele>
        <time>2022-04-02T18:53:22Z</time>
      </trkpt>
      <trkpt lat="48.70988" lon="-3.81882">
        <ele>6</ele>
        <time>2022-04-02T18:53:28Z</time>
      </trkpt>
      <trkpt lat="48.70943" lon="-3.81902">
        <ele>8</ele>
        <time>2022-04-02T18:53:36Z</time>
      </trkpt>
      <trkpt lat="48.70864" lon="-3.82">
        <ele>10</ele>
        <time>2022-04-02T18:53:54Z</time>
      </trkpt>
      <trkpt lat="48.70817" lon="-3.82021">
        <ele>13</ele>
        <time>2022-04-02T18:54:03Z</time>
      </trkpt>
      <trkpt lat="48.70731" lon="-3.82006">
        <ele>16</ele>
        <time>2022-04-02T18:54:18Z</time>
      </trkpt>
      <trkpt lat="48.70581" lon="-3.81991">
        <ele>24</ele>
        <time>2022-04-02T18:54:45Z</time>
      </trkpt>
      <trkpt lat="48.70438" lon="-3.81985">
        <ele>20</ele>
        <time>2022-04-02T18:55:10Z</time>
      </trkpt>
      <trkpt lat="48.70357" lon="-3.81968">
        <ele>22</ele>
        <time>2022-04-02T18:55:25Z</time>
      </trkpt>
      <trkpt lat="48.70315" lon="-3.81985">
        <ele>18</ele>
        <time>2022-04-02T18:55:33Z</time>
      </trkpt>
      <trkpt lat="48.70267" lon="-3.81962">
        <ele>20</ele>
        <time>2022-04-02T18:55:42Z</time>
      </trkpt>
      <trkpt lat="48.70212" lon="-3.8192">
        <ele>20</ele>
        <time>2022-04-02T18:55:53Z</time>
      </trkpt>
      <trkpt lat="48.70146" lon="-3.81882">
        <ele>17</ele>
        <time>2022-04-02T18:56:05Z</time>
      </trkpt>
      <trkpt lat="48.701" lon="-3.81889">
        <ele>13</ele>
        <time>2022-04-02T18:56:13Z</time>
      </trkpt>
      <trkpt lat="48.70059" lon="-3.81987">
        <ele>8</ele>
        <time>2022-04-02T18:56:27Z</time>
      </trkpt>
      <trkpt lat="48.7006" lon="-3.82043">
        <ele>7</ele>
        <time>2022-04-02T18:56:34Z</time>
      </trkpt>
      <trkpt lat="48.70072" lon="-3.821">
        <ele>7</ele>
        <time>2022-04-02T18:56:41Z</time>
      </trkpt>
      <trkpt lat="48.70144" lon="-3.82238">
        <ele>7</ele>
        <time>2022-04-02T18:57:01Z</time>
      </trkpt>
      <trkpt lat="48.70189" lon="-3.82297">
        <ele>5</ele>
        <time>2022-04-02T18:57:12Z</time>
      </trkpt>
      <trkpt lat="48.7031" lon="-3.8262">
        <ele>4</ele>
        <time>2022-04-02T18:57:55Z</time>
      </trkpt>
      <trkpt lat="48.70408" lon="-3.82873">
        <ele>9</ele>
        <time>2022-04-02T18:58:30Z</time>
      </trkpt>
      <trkpt lat="48.70463" lon="-3.82907">
        <ele>14</ele>
        <time>2022-04-02T18:58:40Z</time>
      </trkpt>
      <trkpt lat="48.70528" lon="-3.8293">
        <ele>19</ele>
        <time>2022-04-02T18:58:52Z</time>
      </trkpt>
      <trkpt lat="48.70563" lon="-3.82992">
        <ele>22</ele>
        <time>2022-04-02T18:59:02Z</time>
      </trkpt>
      <trkpt lat="48.70572" lon="-3.83072">
        <ele>24</ele>
        <time>2022-04-02T18:59:11Z</time>
      </trkpt>
      <trkpt lat="48.7054" lon="-3.83207">
        <ele>29</ele>
        <time>2022-04-02T18:59:28Z</time>
      </trkpt>
      <trkpt lat="48.70515" lon="-3.83238">
        <ele>30</ele>
        <time>2022-04-02T18:59:34Z</time>
      </trkpt>
      <trkpt lat="48.70409" lon="-3.83297">
        <ele>35</ele>
        <time>2022-04-02T18:59:54Z</time>
      </trkpt>
      <trkpt lat="48.70322" lon="-3.83371">
        <ele>36</ele>
        <time>2022-04-02T19:00:12Z</time>
      </trkpt>
      <trkpt lat="48.70267" lon="-3.83625">
        <ele>45</ele>
        <time>2022-04-02T19:00:43Z</time>
      </trkpt>
      <trkpt lat="48.70222" lon="-3.83707">
        <ele>49</ele>
        <time>2022-04-02T19:00:56Z</time>
      </trkpt>
      <trkpt lat="48.70138" lon="-3.83759">
        <ele>50</ele>
        <time>2022-04-02T19:01:12Z</time>
      </trkpt>
      <trkpt lat="48.70045" lon="-3.83788">
        <ele>51</ele>
        <time>2022-04-02T19:01:29Z</time>
      </trkpt>
      <trkpt lat="48.69954" lon="-3.83828">
        <ele>52</ele>
        <time>2022-04-02T19:01:46Z</time>
      </trkpt>
      <trkpt lat="48.6987" lon="-3.8382">
        <ele>45</ele>
        <time>2022-04-02T19:02:01Z</time>
      </trkpt>
      <trkpt lat="48.69798" lon="-3.83767">
        <ele>41</ele>
        <time>2022-04-02T19:02:15Z</time>
      </trkpt>
      <trkpt lat="48.69716" lon="-3.83695">
        <ele>40</ele>
        <time>2022-04-02T19:02:32Z</time>
      </trkpt>
      <trkpt lat="48.69629" lon="-3.83635">
        <ele>44</ele>
        <time>2022-04-02T19:02:49Z</time>
      </trkpt>
      <trkpt lat="48.69535" lon="-3.836">
        <ele>50</ele>
        <time>2022-04-02T19:03:06Z</time>
      </trkpt>
      <trkpt lat="48.69287" lon="-3.83547">
        <ele>51</ele>
        <time>2022-04-02T19:03:51Z</time>
      </trkpt>
      <trkpt lat="48.69162" lon="-3.8353">
        <ele>48</ele>
        <time>2022-04-02T19:04:13Z</time>
      </trkpt>
      <trkpt lat="48.69065" lon="-3.83523">
        <ele>47</ele>
        <time>2022-04-02T19:04:30Z</time>
      </trkpt>
      <trkpt lat="48.69041" lon="-3.83536">
        <ele>47</ele>
        <time>2022-04-02T19:04:35Z</time>
      </trkpt>
      <trkpt lat="48.69072" lon="-3.8356">
        <ele>45</ele>
        <time>2022-04-02T19:04:41Z</time>
      </trkpt>
      <trkpt lat="48.69098" lon="-3.83612">
        <ele>43</ele>
        <time>2022-04-02T19:04:49Z</time>
      </trkpt>
      <trkpt lat="48.69111" lon="-3.83668">
        <ele>41</ele>
        <time>2022-04-02T19:04:56Z</time>
      </trkpt>
      <trkpt lat="48.691" lon="-3.83792">
        <ele>32</ele>
        <time>2022-04-02T19:05:10Z</time>
      </trkpt>
      <trkpt lat="48.69112" lon="-3.83873">
        <ele>29</ele>
        <time>2022-04-02T19:05:20Z</time>
      </trkpt>
      <trkpt lat="48.6918" lon="-3.8396">
        <ele>19</ele>
        <time>2022-04-02T19:05:36Z</time>
      </trkpt>
      <trkpt lat="48.69144" lon="-3.84052">
        <ele>21</ele>
        <time>2022-04-02T19:05:48Z</time>
      </trkpt>
      <trkpt lat="48.6913" lon="-3.84162">
        <ele>24</ele>
        <time>2022-04-02T19:06:02Z</time>
      </trkpt>
      <trkpt lat="48.69143" lon="-3.84231">
        <ele>26</ele>
        <time>2022-04-02T19:06:10Z</time>
      </trkpt>
      <trkpt lat="48.6918" lon="-3.84383">
        <ele>34</ele>
        <time>2022-04-02T19:06:29Z</time>
      </trkpt>
      <trkpt lat="48.6928" lon="-3.84554">
        <ele>35</ele>
        <time>2022-04-02T19:06:56Z</time>
      </trkpt>
      <trkpt lat="48.69255" lon="-3.84581">
        <ele>34</ele>
        <time>2022-04-02T19:07:01Z</time>
      </trkpt>
      <trkpt lat="48.69191" lon="-3.84531">
        <ele>36</ele>
        <time>2022-04-02T19:07:14Z</time>
      </trkpt>
      <trkpt lat="48.69095" lon="-3.84538">
        <ele>39</ele>
        <time>2022-04-02T19:07:31Z</time>
      </trkpt>
      <trkpt lat="48.69019" lon="-3.84587">
        <ele>40</ele>
        <time>2022-04-02T19:07:46Z</time>
      </trkpt>
      <trkpt lat="48.68953" lon="-3.84612">
        <ele>40</ele>
        <time>2022-04-02T19:07:58Z</time>
      </trkpt>
      <trkpt lat="48.68916" lon="-3.84618">
        <ele>40</ele>
        <time>2022-04-02T19:08:05Z</time>
      </trkpt>
      <trkpt lat="48.68882" lon="-3.84656">
        <ele>38</ele>
        <time>2022-04-02T19:08:12Z</time>
      </trkpt>
      <trkpt lat="48.68826" lon="-3.84658">
        <ele>39</ele>
        <time>2022-04-02T19:08:22Z</time>
      </trkpt>
      <trkpt lat="48.68807" lon="-3.84648">
        <ele>40</ele>
        <time>2022-04-02T19:08:26Z</time>
      </trkpt>
      <trkpt lat="48.68784" lon="-3.84603">
        <ele>40</ele>
        <time>2022-04-02T19:08:32Z</time>
      </trkpt>
      <trkpt lat="48.6873" lon="-3.84584">
        <ele>41</ele>
        <time>2022-04-02T19:08:42Z</time>
      </trkpt>
      <trkpt lat="48.68675" lon="-3.84573">
        <ele>40</ele>
        <time>2022-04-02T19:08:52Z</time>
      </trkpt>
      <trkpt lat="48.68628" lon="-3.8456">
        <ele>40</ele>
        <time>2022-04-02T19:09:01Z</time>
      </trkpt>
      <trkpt lat="48.68561" lon="-3.84526">
        <ele>40</ele>
        <time>2022-04-02T19:09:13Z</time>
      </trkpt>
      <trkpt lat="48.68503" lon="-3.84503">
        <ele>40</ele>
        <time>2022-04-02T19:09:24Z</time>
      </trkpt>
      <trkpt lat="48.68387" lon="-3.84431">
        <ele>42</ele>
        <time>2022-04-02T19:09:46Z</time>
      </trkpt>
      <trkpt lat="48.68352" lon="-3.84405">
        <ele>43</ele>
        <time>2022-04-02T19:09:53Z</time>
      </trkpt>
      <trkpt lat="48.6833" lon="-3.84398">
        <ele>44</ele>
        <time>2022-04-02T19:09:57Z</time>
      </trkpt>
      <trkpt lat="48.68306" lon="-3.84399">
        <ele>44</ele>
        <time>2022-04-02T19:10:01Z</time>
      </trkpt>
      <trkpt lat="48.68296" lon="-3.84395">
        <ele>44</ele>
        <time>2022-04-02T19:10:03Z</time>
      </trkpt>
      <trkpt lat="48.68243" lon="-3.84278">
        <ele>47</ele>
        <time>2022-04-02T19:10:20Z</time>
      </trkpt>
      <trkpt lat="48.68209" lon="-3.84304">
        <ele>46</ele>
        <time>2022-04-02T19:10:27Z</time>
      </trkpt>
      <trkpt lat="48.68184" lon="-3.84334">
        <ele>46</ele>
        <time>2022-04-02T19:10:32Z</time>
      </trkpt>
      <trkpt lat="48.68171" lon="-3.84367">
        <ele>46</ele>
        <time>2022-04-02T19:10:37Z</time>
      </trkpt>
      <trkpt lat="48.68104" lon="-3.84314">
        <ele>45</ele>
        <time>2022-04-02T19:10:50Z</time>
      </trkpt>
      <trkpt lat="48.68101" lon="-3.84369">
        <ele>43</ele>
        <time>2022-04-02T19:10:57Z</time>
      </trkpt>
      <trkpt lat="48.68036" lon="-3.84376">
        <ele>37</ele>
        <time>2022-04-02T19:11:08Z</time>
      </trkpt>
      <trkpt lat="48.67968" lon="-3.84348">
        <ele>34</ele>
        <time>2022-04-02T19:11:21Z</time>
      </trkpt>
      <trkpt lat="48.67927" lon="-3.84306">
        <ele>34</ele>
        <time>2022-04-02T19:11:30Z</time>
      </trkpt>
      <trkpt lat="48.6791" lon="-3.84292">
        <ele>35</ele>
        <time>2022-04-02T19:11:33Z</time>
      </trkpt>
      <trkpt lat="48.67896" lon="-3.84288">
        <ele>35</ele>
        <time>2022-04-02T19:11:36Z</time>
      </trkpt>
      <trkpt lat="48.67886" lon="-3.84289">
        <ele>35</ele>
        <time>2022-04-02T19:11:38Z</time>
      </trkpt>
      <trkpt lat="48.6785" lon="-3.8431">
        <ele>35</ele>
        <time>2022-04-02T19:11:44Z</time>
      </trkpt>
      <trkpt lat="48.67843" lon="-3.84319">
        <ele>35</ele>
        <time>2022-04-02T19:11:46Z</time>
      </trkpt>
      <trkpt lat="48.67808" lon="-3.84333">
        <ele>37</ele>
        <time>2022-04-02T19:11:52Z</time>
      </trkpt>
      <trkpt lat="48.67801" lon="-3.84341">
        <ele>37</ele>
        <time>2022-04-02T19:11:54Z</time>
      </trkpt>
      <trkpt lat="48.67789" lon="-3.84363">
        <ele>38</ele>
        <time>2022-04-02T19:11:57Z</time>
      </trkpt>
      <trkpt lat="48.67781" lon="-3.84393">
        <ele>38</ele>
        <time>2022-04-02T19:12:01Z</time>
      </trkpt>
      <trkpt lat="48.67771" lon="-3.84407">
        <ele>39</ele>
        <time>2022-04-02T19:12:04Z</time>
      </trkpt>
      <trkpt lat="48.67746" lon="-3.84426">
        <ele>40</ele>
        <time>2022-04-02T19:12:09Z</time>
      </trkpt>
      <trkpt lat="48.67745" lon="-3.84445">
        <ele>40</ele>
        <time>2022-04-02T19:12:11Z</time>
      </trkpt>
      <trkpt lat="48.67816" lon="-3.84493">
        <ele>38</ele>
        <time>2022-04-02T19:12:25Z</time>
      </trkpt>
      <trkpt lat="48.67835" lon="-3.84511">
        <ele>36</ele>
        <time>2022-04-02T19:12:29Z</time>
      </trkpt>
      <trkpt lat="48.67843" lon="-3.84545">
        <ele>34</ele>
        <time>2022-04-02T19:12:33Z</time>
      </trkpt>
      <trkpt lat="48.67836" lon="-3.84627">
        <ele>31</ele>
        <time>2022-04-02T19:12:43Z</time>
      </trkpt>
      <trkpt lat="48.67828" lon="-3.84668">
        <ele>28</ele>
        <time>2022-04-02T19:12:48Z</time>
      </trkpt>
      <trkpt lat="48.67627" lon="-3.84656">
        <ele>30</ele>
        <time>2022-04-02T19:13:23Z</time>
      </trkpt>
      <trkpt lat="48.67463" lon="-3.84625">
        <ele>23</ele>
        <time>2022-04-02T19:13:53Z</time>
      </trkpt>
      <trkpt lat="48.67328" lon="-3.84581">
        <ele>20</ele>
        <time>2022-04-02T19:14:17Z</time>
      </trkpt>
      <trkpt lat="48.67193" lon="-3.84531">
        <ele>21</ele>
        <time>2022-04-02T19:14:42Z</time>
      </trkpt>
      <trkpt lat="48.67129" lon="-3.8453">
        <ele>18</ele>
        <time>2022-04-02T19:14:53Z</time>
      </trkpt>
      <trkpt lat="48.67069" lon="-3.84556">
        <ele>17</ele>
        <time>2022-04-02T19:15:05Z</time>
      </trkpt>
      <trkpt lat="48.66979" lon="-3.84678">
        <ele>17</ele>
        <time>2022-04-02T19:15:26Z</time>
      </trkpt>
      <trkpt lat="48.66928" lon="-3.84713">
        <ele>18</ele>
        <time>2022-04-02T19:15:36Z</time>
      </trkpt>
      <trkpt lat="48.66859" lon="-3.84698">
        <ele>19</ele>
        <time>2022-04-02T19:15:48Z</time>
      </trkpt>
      <trkpt lat="48.66768" lon="-3.84649">
        <ele>21</ele>
        <time>2022-04-02T19:16:06Z</time>
      </trkpt>
      <trkpt lat="48.66685" lon="-3.84612">
        <ele>24</ele>
        <time>2022-04-02T19:16:21Z</time>
      </trkpt>
      <trkpt lat="48.66396" lon="-3.8456">
        <ele>15</ele>
        <time>2022-04-02T19:17:13Z</time>
      </trkpt>
      <trkpt lat="48.66297" lon="-3.84549">
        <ele>11</ele>
        <time>2022-04-02T19:17:30Z</time>
      </trkpt>
      <trkpt lat="48.66192" lon="-3.84529">
        <ele>7</ele>
        <time>2022-04-02T19:17:49Z</time>
      </trkpt>
      <trkpt lat="48.66096" lon="-3.84525">
        <ele>7</ele>
        <time>2022-04-02T19:18:06Z</time>
      </trkpt>
      <trkpt lat="48.66032" lon="-3.84583">
        <ele>7</ele>
        <time>2022-04-02T19:18:20Z</time>
      </trkpt>
      <trkpt lat="48.65992" lon="-3.84671">
        <ele>7</ele>
        <time>2022-04-02T19:18:32Z</time>
      </trkpt>
      <trkpt lat="48.65982" lon="-3.84736">
        <ele>7</ele>
        <time>2022-04-02T19:18:40Z</time>
      </trkpt>
      <trkpt lat="48.65977" lon="-3.84824">
        <ele>7</ele>
        <time>2022-04-02T19:18:50Z</time>
      </trkpt>
    </trkseg>
  </trk>
</gpx>